<?xml version="1.0" encoding="UTF-8"?>
<gpx version="1.1" creator="https://www.youtrack.es" xsi:schemaLocation="http://www.topografix.com/GPX/1/1 http://www.topografix.com/GPX/1/1/gpx.xsd http://www.garmin.com/xmlschemas/GpxExtensions/v3 http://www.garmin.com/xmlschemas/GpxExtensionsv3.xsd http://www.garmin.com/xmlschemas/TrackPointExtension/v1 http://www.garmin.com/xmlschemas/TrackPointExtensionv1.xsd" xmlns:gpxtpx="http://www.garmin.com/xmlschemas/TrackPointExtension/v1" xmlns:gpxx="http://www.garmin.com/xmlschemas/GpxExtensions/v3" xmlns:xsi="http://www.w3.org/2001/XMLSchema-instance">
  <metadata>
    <link href="https://www.youtrack.es">
      <text>YouTrack.es</text>
    </link>
    <time>2026-05-10T11:54:01Z</time>
  </metadata>
  <trk>
    <src>https://www.youtrack.es</src>
    <link href="https://www.youtrack.es/ruta/33093-ruta-manada-verano-2022">
      <text>YouTrack.es</text>
    </link>
    <trkseg>
      <trkpt lat="40.344306" lon="-5.330488">
        <ele>1234.038</ele>
        <time>2022-06-12T23:22:22Z</time>
      </trkpt>
      <trkpt lat="40.344159" lon="-5.330875">
        <ele>1234.070</ele>
        <time>2022-06-12T23:23:02Z</time>
      </trkpt>
      <trkpt lat="40.343951" lon="-5.331277">
        <ele>1231.117</ele>
        <time>2022-06-12T23:23:42Z</time>
      </trkpt>
      <trkpt lat="40.343812" lon="-5.331545">
        <ele>1229.709</ele>
        <time>2022-06-12T23:24:22Z</time>
      </trkpt>
      <trkpt lat="40.343562" lon="-5.331818">
        <ele>1226.434</ele>
        <time>2022-06-12T23:25:02Z</time>
      </trkpt>
      <trkpt lat="40.343423" lon="-5.332764">
        <ele>1225.983</ele>
        <time>2022-06-12T23:25:42Z</time>
      </trkpt>
      <trkpt lat="40.343326" lon="-5.333279">
        <ele>1223.616</ele>
        <time>2022-06-12T23:26:22Z</time>
      </trkpt>
      <trkpt lat="40.343179" lon="-5.333745">
        <ele>1223.073</ele>
        <time>2022-06-12T23:27:02Z</time>
      </trkpt>
      <trkpt lat="40.342889" lon="-5.334732">
        <ele>1220.472</ele>
        <time>2022-06-12T23:27:42Z</time>
      </trkpt>
      <trkpt lat="40.342808" lon="-5.335109">
        <ele>1220.018</ele>
        <time>2022-06-12T23:28:22Z</time>
      </trkpt>
      <trkpt lat="40.342768" lon="-5.335221">
        <ele>1219.577</ele>
        <time>2022-06-12T23:29:02Z</time>
      </trkpt>
      <trkpt lat="40.342723" lon="-5.335307">
        <ele>1218.627</ele>
        <time>2022-06-12T23:29:42Z</time>
      </trkpt>
      <trkpt lat="40.342645" lon="-5.335489">
        <ele>1217.035</ele>
        <time>2022-06-12T23:30:22Z</time>
      </trkpt>
      <trkpt lat="40.342522" lon="-5.336047">
        <ele>1215.245</ele>
        <time>2022-06-12T23:31:02Z</time>
      </trkpt>
      <trkpt lat="40.342490" lon="-5.336519">
        <ele>1216.147</ele>
        <time>2022-06-12T23:31:42Z</time>
      </trkpt>
      <trkpt lat="40.342526" lon="-5.336685">
        <ele>1217.511</ele>
        <time>2022-06-12T23:32:22Z</time>
      </trkpt>
      <trkpt lat="40.342481" lon="-5.337055">
        <ele>1217.909</ele>
        <time>2022-06-12T23:33:02Z</time>
      </trkpt>
      <trkpt lat="40.342441" lon="-5.337323">
        <ele>1217.715</ele>
        <time>2022-06-12T23:33:42Z</time>
      </trkpt>
      <trkpt lat="40.342387" lon="-5.337473">
        <ele>1216.644</ele>
        <time>2022-06-12T23:34:22Z</time>
      </trkpt>
      <trkpt lat="40.342329" lon="-5.337918">
        <ele>1216.237</ele>
        <time>2022-06-12T23:35:02Z</time>
      </trkpt>
      <trkpt lat="40.342321" lon="-5.338074">
        <ele>1216.684</ele>
        <time>2022-06-12T23:35:42Z</time>
      </trkpt>
      <trkpt lat="40.342247" lon="-5.338578">
        <ele>1217.463</ele>
        <time>2022-06-12T23:36:22Z</time>
      </trkpt>
      <trkpt lat="40.342186" lon="-5.339028">
        <ele>1217.549</ele>
        <time>2022-06-12T23:37:02Z</time>
      </trkpt>
      <trkpt lat="40.342125" lon="-5.339628">
        <ele>1216.758</ele>
        <time>2022-06-12T23:37:42Z</time>
      </trkpt>
      <trkpt lat="40.342080" lon="-5.339891">
        <ele>1215.738</ele>
        <time>2022-06-12T23:38:22Z</time>
      </trkpt>
      <trkpt lat="40.342022" lon="-5.339972">
        <ele>1214.256</ele>
        <time>2022-06-12T23:39:02Z</time>
      </trkpt>
      <trkpt lat="40.341945" lon="-5.340122">
        <ele>1212.094</ele>
        <time>2022-06-12T23:39:42Z</time>
      </trkpt>
      <trkpt lat="40.341916" lon="-5.340234">
        <ele>1211.557</ele>
        <time>2022-06-12T23:40:22Z</time>
      </trkpt>
      <trkpt lat="40.341878" lon="-5.340393">
        <ele>1211.122</ele>
        <time>2022-06-12T23:41:02Z</time>
      </trkpt>
      <trkpt lat="40.341840" lon="-5.340461">
        <ele>1210.509</ele>
        <time>2022-06-12T23:41:42Z</time>
      </trkpt>
      <trkpt lat="40.341697" lon="-5.340933">
        <ele>1209.070</ele>
        <time>2022-06-12T23:42:22Z</time>
      </trkpt>
      <trkpt lat="40.341591" lon="-5.341201">
        <ele>1208.229</ele>
        <time>2022-06-12T23:43:02Z</time>
      </trkpt>
      <trkpt lat="40.341558" lon="-5.341480">
        <ele>1208.892</ele>
        <time>2022-06-12T23:43:42Z</time>
      </trkpt>
      <trkpt lat="40.341517" lon="-5.341769">
        <ele>1209.639</ele>
        <time>2022-06-12T23:44:22Z</time>
      </trkpt>
      <trkpt lat="40.341435" lon="-5.341979">
        <ele>1209.388</ele>
        <time>2022-06-12T23:45:02Z</time>
      </trkpt>
      <trkpt lat="40.341292" lon="-5.342188">
        <ele>1207.764</ele>
        <time>2022-06-12T23:45:42Z</time>
      </trkpt>
      <trkpt lat="40.341170" lon="-5.342327">
        <ele>1206.033</ele>
        <time>2022-06-12T23:46:22Z</time>
      </trkpt>
      <trkpt lat="40.340975" lon="-5.342639">
        <ele>1203.813</ele>
        <time>2022-06-12T23:47:02Z</time>
      </trkpt>
      <trkpt lat="40.340681" lon="-5.343041">
        <ele>1201.241</ele>
        <time>2022-06-12T23:47:42Z</time>
      </trkpt>
      <trkpt lat="40.340587" lon="-5.343540">
        <ele>1202.355</ele>
        <time>2022-06-12T23:48:22Z</time>
      </trkpt>
      <trkpt lat="40.340649" lon="-5.344116">
        <ele>1205.607</ele>
        <time>2022-06-12T23:49:02Z</time>
      </trkpt>
      <trkpt lat="40.340641" lon="-5.344539">
        <ele>1207.517</ele>
        <time>2022-06-12T23:49:42Z</time>
      </trkpt>
      <trkpt lat="40.340498" lon="-5.344914">
        <ele>1207.109</ele>
        <time>2022-06-12T23:50:22Z</time>
      </trkpt>
      <trkpt lat="40.340523" lon="-5.345359">
        <ele>1207.936</ele>
        <time>2022-06-12T23:51:02Z</time>
      </trkpt>
      <trkpt lat="40.340543" lon="-5.345997">
        <ele>1209.455</ele>
        <time>2022-06-12T23:51:42Z</time>
      </trkpt>
      <trkpt lat="40.340547" lon="-5.346441">
        <ele>1211.228</ele>
        <time>2022-06-12T23:52:22Z</time>
      </trkpt>
      <trkpt lat="40.340506" lon="-5.346660">
        <ele>1212.155</ele>
        <time>2022-06-12T23:53:02Z</time>
      </trkpt>
      <trkpt lat="40.340445" lon="-5.346864">
        <ele>1212.124</ele>
        <time>2022-06-12T23:53:42Z</time>
      </trkpt>
      <trkpt lat="40.340437" lon="-5.347009">
        <ele>1212.730</ele>
        <time>2022-06-12T23:54:22Z</time>
      </trkpt>
      <trkpt lat="40.340506" lon="-5.347197">
        <ele>1214.839</ele>
        <time>2022-06-12T23:55:02Z</time>
      </trkpt>
      <trkpt lat="40.340494" lon="-5.347572">
        <ele>1217.559</ele>
        <time>2022-06-12T23:55:42Z</time>
      </trkpt>
      <trkpt lat="40.340441" lon="-5.347990">
        <ele>1220.247</ele>
        <time>2022-06-12T23:56:22Z</time>
      </trkpt>
      <trkpt lat="40.340261" lon="-5.348280">
        <ele>1222.358</ele>
        <time>2022-06-12T23:57:02Z</time>
      </trkpt>
      <trkpt lat="40.340145" lon="-5.348551">
        <ele>1226.252</ele>
        <time>2022-06-12T23:57:42Z</time>
      </trkpt>
      <trkpt lat="40.340020" lon="-5.348797">
        <ele>1229.917</ele>
        <time>2022-06-12T23:58:22Z</time>
      </trkpt>
      <trkpt lat="40.339993" lon="-5.348840">
        <ele>1230.509</ele>
        <time>2022-06-12T23:59:02Z</time>
      </trkpt>
      <trkpt lat="40.339934" lon="-5.349071">
        <ele>1233.636</ele>
        <time>2022-06-12T23:59:42Z</time>
      </trkpt>
      <trkpt lat="40.339730" lon="-5.350050">
        <ele>1240.095</ele>
        <time>2022-06-13T00:00:22Z</time>
      </trkpt>
      <trkpt lat="40.339625" lon="-5.351000">
        <ele>1240.498</ele>
        <time>2022-06-13T00:01:02Z</time>
      </trkpt>
      <trkpt lat="40.339697" lon="-5.351279">
        <ele>1238.965</ele>
        <time>2022-06-13T00:01:42Z</time>
      </trkpt>
      <trkpt lat="40.339647" lon="-5.351431">
        <ele>1236.544</ele>
        <time>2022-06-13T00:02:22Z</time>
      </trkpt>
      <trkpt lat="40.339597" lon="-5.351624">
        <ele>1233.720</ele>
        <time>2022-06-13T00:03:02Z</time>
      </trkpt>
      <trkpt lat="40.339615" lon="-5.351737">
        <ele>1233.259</ele>
        <time>2022-06-13T00:03:42Z</time>
      </trkpt>
      <trkpt lat="40.339646" lon="-5.351947">
        <ele>1232.939</ele>
        <time>2022-06-13T00:04:22Z</time>
      </trkpt>
      <trkpt lat="40.339615" lon="-5.352081">
        <ele>1233.237</ele>
        <time>2022-06-13T00:05:02Z</time>
      </trkpt>
      <trkpt lat="40.339628" lon="-5.352196">
        <ele>1234.138</ele>
        <time>2022-06-13T00:05:42Z</time>
      </trkpt>
      <trkpt lat="40.339620" lon="-5.352338">
        <ele>1234.370</ele>
        <time>2022-06-13T00:06:22Z</time>
      </trkpt>
      <trkpt lat="40.339585" lon="-5.352462">
        <ele>1234.017</ele>
        <time>2022-06-13T00:07:02Z</time>
      </trkpt>
      <trkpt lat="40.339505" lon="-5.352620">
        <ele>1232.909</ele>
        <time>2022-06-13T00:07:42Z</time>
      </trkpt>
      <trkpt lat="40.339428" lon="-5.353022">
        <ele>1231.054</ele>
        <time>2022-06-13T00:08:22Z</time>
      </trkpt>
      <trkpt lat="40.339397" lon="-5.353191">
        <ele>1229.963</ele>
        <time>2022-06-13T00:09:02Z</time>
      </trkpt>
      <trkpt lat="40.339448" lon="-5.353419">
        <ele>1229.116</ele>
        <time>2022-06-13T00:09:42Z</time>
      </trkpt>
      <trkpt lat="40.339409" lon="-5.353529">
        <ele>1227.593</ele>
        <time>2022-06-13T00:10:22Z</time>
      </trkpt>
      <trkpt lat="40.339398" lon="-5.353853">
        <ele>1224.822</ele>
        <time>2022-06-13T00:11:02Z</time>
      </trkpt>
      <trkpt lat="40.339432" lon="-5.354539">
        <ele>1220.558</ele>
        <time>2022-06-13T00:11:42Z</time>
      </trkpt>
      <trkpt lat="40.339099" lon="-5.355352">
        <ele>1208.177</ele>
        <time>2022-06-13T00:12:22Z</time>
      </trkpt>
      <trkpt lat="40.338646" lon="-5.356825">
        <ele>1195.997</ele>
        <time>2022-06-13T00:13:02Z</time>
      </trkpt>
      <trkpt lat="40.338985" lon="-5.357537">
        <ele>1203.635</ele>
        <time>2022-06-13T00:13:42Z</time>
      </trkpt>
      <trkpt lat="40.339199" lon="-5.357925">
        <ele>1209.064</ele>
        <time>2022-06-13T00:14:22Z</time>
      </trkpt>
      <trkpt lat="40.339220" lon="-5.358212">
        <ele>1210.406</ele>
        <time>2022-06-13T00:15:02Z</time>
      </trkpt>
      <trkpt lat="40.339277" lon="-5.358555">
        <ele>1213.316</ele>
        <time>2022-06-13T00:15:42Z</time>
      </trkpt>
      <trkpt lat="40.339323" lon="-5.358834">
        <ele>1215.509</ele>
        <time>2022-06-13T00:16:22Z</time>
      </trkpt>
      <trkpt lat="40.339361" lon="-5.358964">
        <ele>1216.817</ele>
        <time>2022-06-13T00:17:02Z</time>
      </trkpt>
      <trkpt lat="40.339242" lon="-5.359472">
        <ele>1215.466</ele>
        <time>2022-06-13T00:17:42Z</time>
      </trkpt>
      <trkpt lat="40.339233" lon="-5.359594">
        <ele>1215.269</ele>
        <time>2022-06-13T00:18:22Z</time>
      </trkpt>
      <trkpt lat="40.339229" lon="-5.359710">
        <ele>1215.136</ele>
        <time>2022-06-13T00:19:02Z</time>
      </trkpt>
      <trkpt lat="40.339118" lon="-5.359962">
        <ele>1213.025</ele>
        <time>2022-06-13T00:19:42Z</time>
      </trkpt>
      <trkpt lat="40.338943" lon="-5.360398">
        <ele>1211.211</ele>
        <time>2022-06-13T00:20:22Z</time>
      </trkpt>
      <trkpt lat="40.338865" lon="-5.360502">
        <ele>1210.060</ele>
        <time>2022-06-13T00:21:02Z</time>
      </trkpt>
      <trkpt lat="40.338904" lon="-5.360690">
        <ele>1212.890</ele>
        <time>2022-06-13T00:21:42Z</time>
      </trkpt>
      <trkpt lat="40.338789" lon="-5.360977">
        <ele>1212.578</ele>
        <time>2022-06-13T00:22:22Z</time>
      </trkpt>
      <trkpt lat="40.338697" lon="-5.361130">
        <ele>1211.454</ele>
        <time>2022-06-13T00:23:02Z</time>
      </trkpt>
      <trkpt lat="40.338724" lon="-5.361468">
        <ele>1216.656</ele>
        <time>2022-06-13T00:23:42Z</time>
      </trkpt>
      <trkpt lat="40.338589" lon="-5.361659">
        <ele>1217.511</ele>
        <time>2022-06-13T00:24:22Z</time>
      </trkpt>
      <trkpt lat="40.338554" lon="-5.361913">
        <ele>1219.809</ele>
        <time>2022-06-13T00:25:02Z</time>
      </trkpt>
      <trkpt lat="40.338563" lon="-5.362029">
        <ele>1221.036</ele>
        <time>2022-06-13T00:25:42Z</time>
      </trkpt>
      <trkpt lat="40.338558" lon="-5.362109">
        <ele>1221.575</ele>
        <time>2022-06-13T00:26:22Z</time>
      </trkpt>
      <trkpt lat="40.338554" lon="-5.362176">
        <ele>1222.038</ele>
        <time>2022-06-13T00:27:02Z</time>
      </trkpt>
      <trkpt lat="40.338596" lon="-5.362349">
        <ele>1223.715</ele>
        <time>2022-06-13T00:27:42Z</time>
      </trkpt>
      <trkpt lat="40.338684" lon="-5.362565">
        <ele>1227.184</ele>
        <time>2022-06-13T00:28:22Z</time>
      </trkpt>
      <trkpt lat="40.338794" lon="-5.362894">
        <ele>1232.430</ele>
        <time>2022-06-13T00:29:02Z</time>
      </trkpt>
      <trkpt lat="40.338815" lon="-5.363388">
        <ele>1236.799</ele>
        <time>2022-06-13T00:29:42Z</time>
      </trkpt>
      <trkpt lat="40.338779" lon="-5.363729">
        <ele>1239.889</ele>
        <time>2022-06-13T00:30:22Z</time>
      </trkpt>
      <trkpt lat="40.338657" lon="-5.364313">
        <ele>1242.087</ele>
        <time>2022-06-13T00:31:02Z</time>
      </trkpt>
      <trkpt lat="40.338607" lon="-5.364655">
        <ele>1242.377</ele>
        <time>2022-06-13T00:31:42Z</time>
      </trkpt>
      <trkpt lat="40.338583" lon="-5.364877">
        <ele>1243.061</ele>
        <time>2022-06-13T00:32:22Z</time>
      </trkpt>
      <trkpt lat="40.338606" lon="-5.365069">
        <ele>1245.327</ele>
        <time>2022-06-13T00:33:02Z</time>
      </trkpt>
      <trkpt lat="40.338602" lon="-5.365386">
        <ele>1247.509</ele>
        <time>2022-06-13T00:33:42Z</time>
      </trkpt>
      <trkpt lat="40.338498" lon="-5.365720">
        <ele>1246.978</ele>
        <time>2022-06-13T00:34:22Z</time>
      </trkpt>
      <trkpt lat="40.338443" lon="-5.366009">
        <ele>1247.897</ele>
        <time>2022-06-13T00:35:02Z</time>
      </trkpt>
      <trkpt lat="40.338324" lon="-5.366279">
        <ele>1246.590</ele>
        <time>2022-06-13T00:35:42Z</time>
      </trkpt>
      <trkpt lat="40.338202" lon="-5.366652">
        <ele>1245.637</ele>
        <time>2022-06-13T00:36:22Z</time>
      </trkpt>
      <trkpt lat="40.338138" lon="-5.366748">
        <ele>1244.566</ele>
        <time>2022-06-13T00:37:02Z</time>
      </trkpt>
      <trkpt lat="40.338103" lon="-5.366943">
        <ele>1245.432</ele>
        <time>2022-06-13T00:37:42Z</time>
      </trkpt>
      <trkpt lat="40.338042" lon="-5.367136">
        <ele>1245.811</ele>
        <time>2022-06-13T00:38:22Z</time>
      </trkpt>
      <trkpt lat="40.337964" lon="-5.367310">
        <ele>1245.741</ele>
        <time>2022-06-13T00:39:02Z</time>
      </trkpt>
      <trkpt lat="40.337924" lon="-5.367509">
        <ele>1246.289</ele>
        <time>2022-06-13T00:39:42Z</time>
      </trkpt>
      <trkpt lat="40.337930" lon="-5.367713">
        <ele>1248.234</ele>
        <time>2022-06-13T00:40:22Z</time>
      </trkpt>
      <trkpt lat="40.337889" lon="-5.367930">
        <ele>1249.355</ele>
        <time>2022-06-13T00:41:02Z</time>
      </trkpt>
      <trkpt lat="40.337873" lon="-5.368082">
        <ele>1250.310</ele>
        <time>2022-06-13T00:41:42Z</time>
      </trkpt>
      <trkpt lat="40.337852" lon="-5.368256">
        <ele>1251.209</ele>
        <time>2022-06-13T00:42:22Z</time>
      </trkpt>
      <trkpt lat="40.337842" lon="-5.368390">
        <ele>1252.584</ele>
        <time>2022-06-13T00:43:02Z</time>
      </trkpt>
      <trkpt lat="40.337797" lon="-5.368505">
        <ele>1253.543</ele>
        <time>2022-06-13T00:43:42Z</time>
      </trkpt>
      <trkpt lat="40.337721" lon="-5.368588">
        <ele>1254.456</ele>
        <time>2022-06-13T00:44:22Z</time>
      </trkpt>
      <trkpt lat="40.337678" lon="-5.368709">
        <ele>1256.063</ele>
        <time>2022-06-13T00:45:02Z</time>
      </trkpt>
      <trkpt lat="40.337662" lon="-5.368781">
        <ele>1257.082</ele>
        <time>2022-06-13T00:45:42Z</time>
      </trkpt>
      <trkpt lat="40.337791" lon="-5.368972">
        <ele>1260.468</ele>
        <time>2022-06-13T00:46:22Z</time>
      </trkpt>
      <trkpt lat="40.337954" lon="-5.369151">
        <ele>1264.777</ele>
        <time>2022-06-13T00:47:02Z</time>
      </trkpt>
      <trkpt lat="40.338103" lon="-5.369393">
        <ele>1269.037</ele>
        <time>2022-06-13T00:47:42Z</time>
      </trkpt>
      <trkpt lat="40.338167" lon="-5.369631">
        <ele>1271.835</ele>
        <time>2022-06-13T00:48:22Z</time>
      </trkpt>
      <trkpt lat="40.338208" lon="-5.369784">
        <ele>1273.784</ele>
        <time>2022-06-13T00:49:02Z</time>
      </trkpt>
      <trkpt lat="40.338204" lon="-5.370074">
        <ele>1275.707</ele>
        <time>2022-06-13T00:49:42Z</time>
      </trkpt>
      <trkpt lat="40.338194" lon="-5.370367">
        <ele>1277.217</ele>
        <time>2022-06-13T00:50:22Z</time>
      </trkpt>
      <trkpt lat="40.338306" lon="-5.370702">
        <ele>1278.809</ele>
        <time>2022-06-13T00:51:02Z</time>
      </trkpt>
      <trkpt lat="40.338315" lon="-5.371001">
        <ele>1279.089</ele>
        <time>2022-06-13T00:51:42Z</time>
      </trkpt>
      <trkpt lat="40.338356" lon="-5.371161">
        <ele>1278.618</ele>
        <time>2022-06-13T00:52:22Z</time>
      </trkpt>
      <trkpt lat="40.338523" lon="-5.372236">
        <ele>1265.481</ele>
        <time>2022-06-13T00:53:02Z</time>
      </trkpt>
      <trkpt lat="40.338503" lon="-5.372416">
        <ele>1263.958</ele>
        <time>2022-06-13T00:53:42Z</time>
      </trkpt>
      <trkpt lat="40.338510" lon="-5.372587">
        <ele>1261.997</ele>
        <time>2022-06-13T00:54:22Z</time>
      </trkpt>
      <trkpt lat="40.338473" lon="-5.372740">
        <ele>1260.943</ele>
        <time>2022-06-13T00:55:02Z</time>
      </trkpt>
      <trkpt lat="40.338451" lon="-5.372895">
        <ele>1259.482</ele>
        <time>2022-06-13T00:55:42Z</time>
      </trkpt>
      <trkpt lat="40.338428" lon="-5.372983">
        <ele>1258.862</ele>
        <time>2022-06-13T00:56:22Z</time>
      </trkpt>
      <trkpt lat="40.338383" lon="-5.373179">
        <ele>1258.030</ele>
        <time>2022-06-13T00:57:02Z</time>
      </trkpt>
      <trkpt lat="40.338355" lon="-5.373329">
        <ele>1257.594</ele>
        <time>2022-06-13T00:57:42Z</time>
      </trkpt>
      <trkpt lat="40.338371" lon="-5.373487">
        <ele>1255.457</ele>
        <time>2022-06-13T00:58:22Z</time>
      </trkpt>
      <trkpt lat="40.338352" lon="-5.373841">
        <ele>1252.022</ele>
        <time>2022-06-13T00:59:02Z</time>
      </trkpt>
      <trkpt lat="40.338260" lon="-5.374323">
        <ele>1249.209</ele>
        <time>2022-06-13T00:59:42Z</time>
      </trkpt>
      <trkpt lat="40.338211" lon="-5.374650">
        <ele>1245.510</ele>
        <time>2022-06-13T01:00:22Z</time>
      </trkpt>
      <trkpt lat="40.338202" lon="-5.374829">
        <ele>1244.139</ele>
        <time>2022-06-13T01:01:02Z</time>
      </trkpt>
      <trkpt lat="40.338236" lon="-5.375094">
        <ele>1241.442</ele>
        <time>2022-06-13T01:01:42Z</time>
      </trkpt>
      <trkpt lat="40.338234" lon="-5.375252">
        <ele>1240.729</ele>
        <time>2022-06-13T01:02:22Z</time>
      </trkpt>
      <trkpt lat="40.338267" lon="-5.375464">
        <ele>1238.718</ele>
        <time>2022-06-13T01:03:02Z</time>
      </trkpt>
      <trkpt lat="40.338277" lon="-5.375603">
        <ele>1237.794</ele>
        <time>2022-06-13T01:03:42Z</time>
      </trkpt>
      <trkpt lat="40.338302" lon="-5.375692">
        <ele>1236.183</ele>
        <time>2022-06-13T01:04:22Z</time>
      </trkpt>
      <trkpt lat="40.338320" lon="-5.376115">
        <ele>1234.443</ele>
        <time>2022-06-13T01:05:02Z</time>
      </trkpt>
      <trkpt lat="40.338311" lon="-5.376342">
        <ele>1233.961</ele>
        <time>2022-06-13T01:05:42Z</time>
      </trkpt>
      <trkpt lat="40.338368" lon="-5.376586">
        <ele>1231.751</ele>
        <time>2022-06-13T01:06:22Z</time>
      </trkpt>
      <trkpt lat="40.338424" lon="-5.376950">
        <ele>1229.001</ele>
        <time>2022-06-13T01:07:02Z</time>
      </trkpt>
      <trkpt lat="40.338426" lon="-5.377328">
        <ele>1227.211</ele>
        <time>2022-06-13T01:07:42Z</time>
      </trkpt>
      <trkpt lat="40.338443" lon="-5.377576">
        <ele>1225.109</ele>
        <time>2022-06-13T01:08:22Z</time>
      </trkpt>
      <trkpt lat="40.338408" lon="-5.377790">
        <ele>1224.396</ele>
        <time>2022-06-13T01:09:02Z</time>
      </trkpt>
      <trkpt lat="40.338420" lon="-5.378101">
        <ele>1222.135</ele>
        <time>2022-06-13T01:09:42Z</time>
      </trkpt>
      <trkpt lat="40.338528" lon="-5.378825">
        <ele>1217.138</ele>
        <time>2022-06-13T01:10:22Z</time>
      </trkpt>
      <trkpt lat="40.338642" lon="-5.378976">
        <ele>1215.485</ele>
        <time>2022-06-13T01:11:02Z</time>
      </trkpt>
      <trkpt lat="40.338732" lon="-5.379284">
        <ele>1213.094</ele>
        <time>2022-06-13T01:11:42Z</time>
      </trkpt>
      <trkpt lat="40.338750" lon="-5.379486">
        <ele>1211.810</ele>
        <time>2022-06-13T01:12:22Z</time>
      </trkpt>
      <trkpt lat="40.338787" lon="-5.379692">
        <ele>1210.859</ele>
        <time>2022-06-13T01:13:02Z</time>
      </trkpt>
      <trkpt lat="40.338797" lon="-5.379928">
        <ele>1209.739</ele>
        <time>2022-06-13T01:13:42Z</time>
      </trkpt>
      <trkpt lat="40.338813" lon="-5.380062">
        <ele>1208.847</ele>
        <time>2022-06-13T01:14:22Z</time>
      </trkpt>
      <trkpt lat="40.338807" lon="-5.380245">
        <ele>1207.583</ele>
        <time>2022-06-13T01:15:02Z</time>
      </trkpt>
      <trkpt lat="40.338862" lon="-5.380436">
        <ele>1206.025</ele>
        <time>2022-06-13T01:15:42Z</time>
      </trkpt>
      <trkpt lat="40.338872" lon="-5.380763">
        <ele>1203.717</ele>
        <time>2022-06-13T01:16:22Z</time>
      </trkpt>
      <trkpt lat="40.338822" lon="-5.380971">
        <ele>1202.709</ele>
        <time>2022-06-13T01:17:02Z</time>
      </trkpt>
      <trkpt lat="40.338920" lon="-5.381237">
        <ele>1199.989</ele>
        <time>2022-06-13T01:17:42Z</time>
      </trkpt>
      <trkpt lat="40.339075" lon="-5.381615">
        <ele>1194.958</ele>
        <time>2022-06-13T01:18:22Z</time>
      </trkpt>
      <trkpt lat="40.339054" lon="-5.382105">
        <ele>1191.851</ele>
        <time>2022-06-13T01:19:02Z</time>
      </trkpt>
      <trkpt lat="40.338931" lon="-5.382609">
        <ele>1188.958</ele>
        <time>2022-06-13T01:19:42Z</time>
      </trkpt>
      <trkpt lat="40.338802" lon="-5.382874">
        <ele>1187.187</ele>
        <time>2022-06-13T01:20:22Z</time>
      </trkpt>
      <trkpt lat="40.338659" lon="-5.383323">
        <ele>1183.413</ele>
        <time>2022-06-13T01:21:02Z</time>
      </trkpt>
      <trkpt lat="40.338584" lon="-5.383598">
        <ele>1180.792</ele>
        <time>2022-06-13T01:21:42Z</time>
      </trkpt>
      <trkpt lat="40.338539" lon="-5.383874">
        <ele>1177.892</ele>
        <time>2022-06-13T01:22:22Z</time>
      </trkpt>
      <trkpt lat="40.338460" lon="-5.384182">
        <ele>1175.650</ele>
        <time>2022-06-13T01:23:02Z</time>
      </trkpt>
      <trkpt lat="40.338402" lon="-5.384489">
        <ele>1173.359</ele>
        <time>2022-06-13T01:23:42Z</time>
      </trkpt>
      <trkpt lat="40.338338" lon="-5.384813">
        <ele>1170.303</ele>
        <time>2022-06-13T01:24:22Z</time>
      </trkpt>
      <trkpt lat="40.338268" lon="-5.385128">
        <ele>1168.923</ele>
        <time>2022-06-13T01:25:02Z</time>
      </trkpt>
      <trkpt lat="40.338354" lon="-5.385415">
        <ele>1166.709</ele>
        <time>2022-06-13T01:25:42Z</time>
      </trkpt>
      <trkpt lat="40.338408" lon="-5.385641">
        <ele>1166.436</ele>
        <time>2022-06-13T01:26:22Z</time>
      </trkpt>
      <trkpt lat="40.338465" lon="-5.385971">
        <ele>1166.185</ele>
        <time>2022-06-13T01:27:02Z</time>
      </trkpt>
      <trkpt lat="40.338486" lon="-5.386113">
        <ele>1166.328</ele>
        <time>2022-06-13T01:27:42Z</time>
      </trkpt>
      <trkpt lat="40.338437" lon="-5.386301">
        <ele>1165.135</ele>
        <time>2022-06-13T01:28:22Z</time>
      </trkpt>
      <trkpt lat="40.338428" lon="-5.386386">
        <ele>1164.744</ele>
        <time>2022-06-13T01:29:02Z</time>
      </trkpt>
      <trkpt lat="40.338536" lon="-5.386552">
        <ele>1168.790</ele>
        <time>2022-06-13T01:29:42Z</time>
      </trkpt>
      <trkpt lat="40.338732" lon="-5.386817">
        <ele>1172.779</ele>
        <time>2022-06-13T01:30:22Z</time>
      </trkpt>
      <trkpt lat="40.338726" lon="-5.387046">
        <ele>1172.739</ele>
        <time>2022-06-13T01:31:02Z</time>
      </trkpt>
      <trkpt lat="40.338692" lon="-5.387314">
        <ele>1172.177</ele>
        <time>2022-06-13T01:31:42Z</time>
      </trkpt>
      <trkpt lat="40.338685" lon="-5.387472">
        <ele>1171.881</ele>
        <time>2022-06-13T01:32:22Z</time>
      </trkpt>
      <trkpt lat="40.338696" lon="-5.387612">
        <ele>1171.661</ele>
        <time>2022-06-13T01:33:02Z</time>
      </trkpt>
      <trkpt lat="40.338735" lon="-5.387781">
        <ele>1171.817</ele>
        <time>2022-06-13T01:33:42Z</time>
      </trkpt>
      <trkpt lat="40.338731" lon="-5.387931">
        <ele>1171.409</ele>
        <time>2022-06-13T01:34:22Z</time>
      </trkpt>
      <trkpt lat="40.338674" lon="-5.388119">
        <ele>1170.469</ele>
        <time>2022-06-13T01:35:02Z</time>
      </trkpt>
      <trkpt lat="40.338627" lon="-5.388304">
        <ele>1170.258</ele>
        <time>2022-06-13T01:35:42Z</time>
      </trkpt>
      <trkpt lat="40.338587" lon="-5.388514">
        <ele>1171.081</ele>
        <time>2022-06-13T01:36:22Z</time>
      </trkpt>
      <trkpt lat="40.338561" lon="-5.388581">
        <ele>1171.188</ele>
        <time>2022-06-13T01:37:02Z</time>
      </trkpt>
      <trkpt lat="40.338500" lon="-5.388709">
        <ele>1170.537</ele>
        <time>2022-06-13T01:37:42Z</time>
      </trkpt>
      <trkpt lat="40.338426" lon="-5.388860">
        <ele>1169.963</ele>
        <time>2022-06-13T01:38:22Z</time>
      </trkpt>
      <trkpt lat="40.338426" lon="-5.388988">
        <ele>1170.492</ele>
        <time>2022-06-13T01:39:02Z</time>
      </trkpt>
      <trkpt lat="40.338428" lon="-5.389106">
        <ele>1170.812</ele>
        <time>2022-06-13T01:39:42Z</time>
      </trkpt>
      <trkpt lat="40.338526" lon="-5.389267">
        <ele>1172.490</ele>
        <time>2022-06-13T01:40:22Z</time>
      </trkpt>
      <trkpt lat="40.338571" lon="-5.389369">
        <ele>1173.366</ele>
        <time>2022-06-13T01:41:02Z</time>
      </trkpt>
      <trkpt lat="40.338510" lon="-5.389478">
        <ele>1173.029</ele>
        <time>2022-06-13T01:41:42Z</time>
      </trkpt>
      <trkpt lat="40.338401" lon="-5.389728">
        <ele>1172.821</ele>
        <time>2022-06-13T01:42:22Z</time>
      </trkpt>
      <trkpt lat="40.338352" lon="-5.389996">
        <ele>1173.209</ele>
        <time>2022-06-13T01:43:02Z</time>
      </trkpt>
      <trkpt lat="40.338315" lon="-5.390269">
        <ele>1173.757</ele>
        <time>2022-06-13T01:43:42Z</time>
      </trkpt>
      <trkpt lat="40.338294" lon="-5.390384">
        <ele>1173.816</ele>
        <time>2022-06-13T01:44:22Z</time>
      </trkpt>
      <trkpt lat="40.338281" lon="-5.390628">
        <ele>1174.389</ele>
        <time>2022-06-13T01:45:02Z</time>
      </trkpt>
      <trkpt lat="40.338241" lon="-5.390738">
        <ele>1173.916</ele>
        <time>2022-06-13T01:45:42Z</time>
      </trkpt>
      <trkpt lat="40.338192" lon="-5.390887">
        <ele>1173.565</ele>
        <time>2022-06-13T01:46:22Z</time>
      </trkpt>
      <trkpt lat="40.338137" lon="-5.391099">
        <ele>1172.991</ele>
        <time>2022-06-13T01:47:02Z</time>
      </trkpt>
      <trkpt lat="40.338129" lon="-5.391249">
        <ele>1172.370</ele>
        <time>2022-06-13T01:47:42Z</time>
      </trkpt>
      <trkpt lat="40.338121" lon="-5.391364">
        <ele>1171.890</ele>
        <time>2022-06-13T01:48:22Z</time>
      </trkpt>
      <trkpt lat="40.338129" lon="-5.391503">
        <ele>1171.798</ele>
        <time>2022-06-13T01:49:02Z</time>
      </trkpt>
      <trkpt lat="40.338100" lon="-5.391633">
        <ele>1171.362</ele>
        <time>2022-06-13T01:49:42Z</time>
      </trkpt>
      <trkpt lat="40.337937" lon="-5.392357">
        <ele>1167.083</ele>
        <time>2022-06-13T01:50:22Z</time>
      </trkpt>
      <trkpt lat="40.337811" lon="-5.392909">
        <ele>1163.311</ele>
        <time>2022-06-13T01:51:02Z</time>
      </trkpt>
      <trkpt lat="40.337775" lon="-5.393198">
        <ele>1161.509</ele>
        <time>2022-06-13T01:51:42Z</time>
      </trkpt>
      <trkpt lat="40.337795" lon="-5.393849">
        <ele>1160.057</ele>
        <time>2022-06-13T01:52:22Z</time>
      </trkpt>
      <trkpt lat="40.337784" lon="-5.394061">
        <ele>1160.076</ele>
        <time>2022-06-13T01:53:02Z</time>
      </trkpt>
      <trkpt lat="40.337367" lon="-5.395361">
        <ele>1157.079</ele>
        <time>2022-06-13T01:53:42Z</time>
      </trkpt>
      <trkpt lat="40.337145" lon="-5.395568">
        <ele>1156.596</ele>
        <time>2022-06-13T01:54:22Z</time>
      </trkpt>
      <trkpt lat="40.336724" lon="-5.395793">
        <ele>1154.315</ele>
        <time>2022-06-13T01:55:02Z</time>
      </trkpt>
      <trkpt lat="40.336573" lon="-5.395993">
        <ele>1153.921</ele>
        <time>2022-06-13T01:55:42Z</time>
      </trkpt>
      <trkpt lat="40.336469" lon="-5.396285">
        <ele>1154.280</ele>
        <time>2022-06-13T01:56:22Z</time>
      </trkpt>
      <trkpt lat="40.336389" lon="-5.396762">
        <ele>1155.070</ele>
        <time>2022-06-13T01:57:02Z</time>
      </trkpt>
      <trkpt lat="40.336271" lon="-5.397702">
        <ele>1153.718</ele>
        <time>2022-06-13T01:57:42Z</time>
      </trkpt>
      <trkpt lat="40.336164" lon="-5.398601">
        <ele>1154.339</ele>
        <time>2022-06-13T01:58:22Z</time>
      </trkpt>
      <trkpt lat="40.336054" lon="-5.398801">
        <ele>1154.201</ele>
        <time>2022-06-13T01:59:02Z</time>
      </trkpt>
      <trkpt lat="40.335819" lon="-5.398943">
        <ele>1153.121</ele>
        <time>2022-06-13T01:59:42Z</time>
      </trkpt>
      <trkpt lat="40.335650" lon="-5.399000">
        <ele>1152.709</ele>
        <time>2022-06-13T02:00:22Z</time>
      </trkpt>
      <trkpt lat="40.335286" lon="-5.398976">
        <ele>1151.334</ele>
        <time>2022-06-13T02:01:02Z</time>
      </trkpt>
      <trkpt lat="40.335032" lon="-5.399067">
        <ele>1150.893</ele>
        <time>2022-06-13T02:01:42Z</time>
      </trkpt>
      <trkpt lat="40.334763" lon="-5.399268">
        <ele>1149.786</ele>
        <time>2022-06-13T02:02:22Z</time>
      </trkpt>
      <trkpt lat="40.334414" lon="-5.399531">
        <ele>1149.183</ele>
        <time>2022-06-13T02:03:02Z</time>
      </trkpt>
      <trkpt lat="40.334150" lon="-5.399895">
        <ele>1148.612</ele>
        <time>2022-06-13T02:03:42Z</time>
      </trkpt>
      <trkpt lat="40.333919" lon="-5.400378">
        <ele>1149.478</ele>
        <time>2022-06-13T02:04:22Z</time>
      </trkpt>
      <trkpt lat="40.333732" lon="-5.400722">
        <ele>1150.077</ele>
        <time>2022-06-13T02:05:02Z</time>
      </trkpt>
      <trkpt lat="40.333582" lon="-5.400789">
        <ele>1150.017</ele>
        <time>2022-06-13T02:05:42Z</time>
      </trkpt>
      <trkpt lat="40.333493" lon="-5.400701">
        <ele>1150.015</ele>
        <time>2022-06-13T02:06:22Z</time>
      </trkpt>
      <trkpt lat="40.333183" lon="-5.400173">
        <ele>1146.349</ele>
        <time>2022-06-13T02:07:02Z</time>
      </trkpt>
      <trkpt lat="40.333063" lon="-5.400000">
        <ele>1144.102</ele>
        <time>2022-06-13T02:07:42Z</time>
      </trkpt>
      <trkpt lat="40.332748" lon="-5.399770">
        <ele>1142.122</ele>
        <time>2022-06-13T02:08:22Z</time>
      </trkpt>
      <trkpt lat="40.332668" lon="-5.399689">
        <ele>1141.509</ele>
        <time>2022-06-13T02:09:02Z</time>
      </trkpt>
      <trkpt lat="40.332640" lon="-5.399623">
        <ele>1141.185</ele>
        <time>2022-06-13T02:09:42Z</time>
      </trkpt>
      <trkpt lat="40.332552" lon="-5.399542">
        <ele>1140.554</ele>
        <time>2022-06-13T02:10:22Z</time>
      </trkpt>
      <trkpt lat="40.332514" lon="-5.399634">
        <ele>1140.767</ele>
        <time>2022-06-13T02:11:02Z</time>
      </trkpt>
      <trkpt lat="40.332456" lon="-5.399652">
        <ele>1140.674</ele>
        <time>2022-06-13T02:11:42Z</time>
      </trkpt>
      <trkpt lat="40.332383" lon="-5.399626">
        <ele>1140.223</ele>
        <time>2022-06-13T02:12:22Z</time>
      </trkpt>
      <trkpt lat="40.332051" lon="-5.399410">
        <ele>1137.689</ele>
        <time>2022-06-13T02:13:02Z</time>
      </trkpt>
      <trkpt lat="40.331978" lon="-5.399351">
        <ele>1136.948</ele>
        <time>2022-06-13T02:13:42Z</time>
      </trkpt>
      <trkpt lat="40.331854" lon="-5.399403">
        <ele>1136.268</ele>
        <time>2022-06-13T02:14:22Z</time>
      </trkpt>
      <trkpt lat="40.331784" lon="-5.399403">
        <ele>1135.796</ele>
        <time>2022-06-13T02:15:02Z</time>
      </trkpt>
      <trkpt lat="40.331725" lon="-5.399398">
        <ele>1135.341</ele>
        <time>2022-06-13T02:15:42Z</time>
      </trkpt>
      <trkpt lat="40.331527" lon="-5.399473">
        <ele>1134.681</ele>
        <time>2022-06-13T02:16:22Z</time>
      </trkpt>
      <trkpt lat="40.331376" lon="-5.399542">
        <ele>1134.209</ele>
        <time>2022-06-13T02:17:02Z</time>
      </trkpt>
      <trkpt lat="40.330982" lon="-5.399719">
        <ele>1131.509</ele>
        <time>2022-06-13T02:17:42Z</time>
      </trkpt>
      <trkpt lat="40.330843" lon="-5.399646">
        <ele>1130.855</ele>
        <time>2022-06-13T02:18:22Z</time>
      </trkpt>
      <trkpt lat="40.330525" lon="-5.399540">
        <ele>1130.324</ele>
        <time>2022-06-13T02:19:02Z</time>
      </trkpt>
      <trkpt lat="40.330221" lon="-5.399555">
        <ele>1130.227</ele>
        <time>2022-06-13T02:19:42Z</time>
      </trkpt>
      <trkpt lat="40.329970" lon="-5.399548">
        <ele>1129.364</ele>
        <time>2022-06-13T02:20:22Z</time>
      </trkpt>
      <trkpt lat="40.329759" lon="-5.399629">
        <ele>1129.133</ele>
        <time>2022-06-13T02:21:02Z</time>
      </trkpt>
      <trkpt lat="40.329546" lon="-5.399658">
        <ele>1128.219</ele>
        <time>2022-06-13T02:21:42Z</time>
      </trkpt>
      <trkpt lat="40.329390" lon="-5.399604">
        <ele>1127.418</ele>
        <time>2022-06-13T02:22:22Z</time>
      </trkpt>
      <trkpt lat="40.329219" lon="-5.399548">
        <ele>1126.638</ele>
        <time>2022-06-13T02:23:02Z</time>
      </trkpt>
      <trkpt lat="40.329130" lon="-5.399514">
        <ele>1126.186</ele>
        <time>2022-06-13T02:23:42Z</time>
      </trkpt>
      <trkpt lat="40.329106" lon="-5.399294">
        <ele>1125.275</ele>
        <time>2022-06-13T02:24:22Z</time>
      </trkpt>
      <trkpt lat="40.329098" lon="-5.399197">
        <ele>1124.928</ele>
        <time>2022-06-13T02:25:02Z</time>
      </trkpt>
      <trkpt lat="40.329023" lon="-5.399145">
        <ele>1124.420</ele>
        <time>2022-06-13T02:25:42Z</time>
      </trkpt>
      <trkpt lat="40.328925" lon="-5.399120">
        <ele>1124.009</ele>
        <time>2022-06-13T02:26:22Z</time>
      </trkpt>
      <trkpt lat="40.328780" lon="-5.399189">
        <ele>1122.928</ele>
        <time>2022-06-13T02:27:02Z</time>
      </trkpt>
      <trkpt lat="40.328678" lon="-5.399412">
        <ele>1122.687</ele>
        <time>2022-06-13T02:27:42Z</time>
      </trkpt>
      <trkpt lat="40.328576" lon="-5.399492">
        <ele>1121.720</ele>
        <time>2022-06-13T02:28:22Z</time>
      </trkpt>
      <trkpt lat="40.328407" lon="-5.399493">
        <ele>1119.287</ele>
        <time>2022-06-13T02:29:02Z</time>
      </trkpt>
      <trkpt lat="40.328113" lon="-5.399475">
        <ele>1115.676</ele>
        <time>2022-06-13T02:29:42Z</time>
      </trkpt>
      <trkpt lat="40.327859" lon="-5.399441">
        <ele>1117.232</ele>
        <time>2022-06-13T02:30:22Z</time>
      </trkpt>
      <trkpt lat="40.327675" lon="-5.399395">
        <ele>1122.571</ele>
        <time>2022-06-13T02:31:02Z</time>
      </trkpt>
      <trkpt lat="40.327532" lon="-5.399518">
        <ele>1126.731</ele>
        <time>2022-06-13T02:31:42Z</time>
      </trkpt>
      <trkpt lat="40.327384" lon="-5.399708">
        <ele>1127.249</ele>
        <time>2022-06-13T02:32:22Z</time>
      </trkpt>
      <trkpt lat="40.327153" lon="-5.399890">
        <ele>1128.842</ele>
        <time>2022-06-13T02:33:02Z</time>
      </trkpt>
      <trkpt lat="40.326942" lon="-5.400065">
        <ele>1129.322</ele>
        <time>2022-06-13T02:33:42Z</time>
      </trkpt>
      <trkpt lat="40.326791" lon="-5.400269">
        <ele>1128.714</ele>
        <time>2022-06-13T02:34:22Z</time>
      </trkpt>
      <trkpt lat="40.326633" lon="-5.400454">
        <ele>1129.009</ele>
        <time>2022-06-13T02:35:02Z</time>
      </trkpt>
      <trkpt lat="40.326328" lon="-5.400744">
        <ele>1129.525</ele>
        <time>2022-06-13T02:35:42Z</time>
      </trkpt>
      <trkpt lat="40.326059" lon="-5.401080">
        <ele>1131.014</ele>
        <time>2022-06-13T02:36:22Z</time>
      </trkpt>
      <trkpt lat="40.326006" lon="-5.401244">
        <ele>1130.737</ele>
        <time>2022-06-13T02:37:02Z</time>
      </trkpt>
      <trkpt lat="40.325921" lon="-5.401580">
        <ele>1130.314</ele>
        <time>2022-06-13T02:37:42Z</time>
      </trkpt>
      <trkpt lat="40.325878" lon="-5.401819">
        <ele>1129.793</ele>
        <time>2022-06-13T02:38:22Z</time>
      </trkpt>
      <trkpt lat="40.325817" lon="-5.401934">
        <ele>1130.339</ele>
        <time>2022-06-13T02:39:02Z</time>
      </trkpt>
      <trkpt lat="40.325749" lon="-5.402030">
        <ele>1129.948</ele>
        <time>2022-06-13T02:39:42Z</time>
      </trkpt>
      <trkpt lat="40.325618" lon="-5.402145">
        <ele>1130.638</ele>
        <time>2022-06-13T02:40:22Z</time>
      </trkpt>
      <trkpt lat="40.325528" lon="-5.402271">
        <ele>1130.716</ele>
        <time>2022-06-13T02:41:02Z</time>
      </trkpt>
      <trkpt lat="40.325455" lon="-5.402356">
        <ele>1130.749</ele>
        <time>2022-06-13T02:41:42Z</time>
      </trkpt>
      <trkpt lat="40.325385" lon="-5.402386">
        <ele>1131.502</ele>
        <time>2022-06-13T02:42:22Z</time>
      </trkpt>
      <trkpt lat="40.325322" lon="-5.402442">
        <ele>1131.922</ele>
        <time>2022-06-13T02:43:02Z</time>
      </trkpt>
      <trkpt lat="40.325214" lon="-5.402571">
        <ele>1132.409</ele>
        <time>2022-06-13T02:43:42Z</time>
      </trkpt>
      <trkpt lat="40.325048" lon="-5.402831">
        <ele>1132.135</ele>
        <time>2022-06-13T02:44:22Z</time>
      </trkpt>
      <trkpt lat="40.324937" lon="-5.402986">
        <ele>1132.274</ele>
        <time>2022-06-13T02:45:02Z</time>
      </trkpt>
      <trkpt lat="40.324852" lon="-5.403081">
        <ele>1132.127</ele>
        <time>2022-06-13T02:45:42Z</time>
      </trkpt>
      <trkpt lat="40.324713" lon="-5.403146">
        <ele>1133.614</ele>
        <time>2022-06-13T02:46:22Z</time>
      </trkpt>
      <trkpt lat="40.324590" lon="-5.403237">
        <ele>1135.543</ele>
        <time>2022-06-13T02:47:02Z</time>
      </trkpt>
      <trkpt lat="40.324496" lon="-5.403315">
        <ele>1137.579</ele>
        <time>2022-06-13T02:47:42Z</time>
      </trkpt>
      <trkpt lat="40.324417" lon="-5.403357">
        <ele>1138.958</ele>
        <time>2022-06-13T02:48:22Z</time>
      </trkpt>
      <trkpt lat="40.324356" lon="-5.403440">
        <ele>1138.518</ele>
        <time>2022-06-13T02:49:02Z</time>
      </trkpt>
      <trkpt lat="40.324319" lon="-5.403555">
        <ele>1137.556</ele>
        <time>2022-06-13T02:49:42Z</time>
      </trkpt>
      <trkpt lat="40.324220" lon="-5.403709">
        <ele>1138.912</ele>
        <time>2022-06-13T02:50:22Z</time>
      </trkpt>
      <trkpt lat="40.324085" lon="-5.403854">
        <ele>1141.132</ele>
        <time>2022-06-13T02:51:02Z</time>
      </trkpt>
      <trkpt lat="40.324020" lon="-5.403950">
        <ele>1141.105</ele>
        <time>2022-06-13T02:51:42Z</time>
      </trkpt>
      <trkpt lat="40.323921" lon="-5.404133">
        <ele>1141.309</ele>
        <time>2022-06-13T02:52:22Z</time>
      </trkpt>
      <trkpt lat="40.323818" lon="-5.404307">
        <ele>1143.062</ele>
        <time>2022-06-13T02:53:02Z</time>
      </trkpt>
      <trkpt lat="40.323752" lon="-5.404495">
        <ele>1143.451</ele>
        <time>2022-06-13T02:53:42Z</time>
      </trkpt>
      <trkpt lat="40.323632" lon="-5.404838">
        <ele>1142.314</ele>
        <time>2022-06-13T02:54:22Z</time>
      </trkpt>
      <trkpt lat="40.323410" lon="-5.405615">
        <ele>1139.621</ele>
        <time>2022-06-13T02:55:02Z</time>
      </trkpt>
      <trkpt lat="40.323280" lon="-5.406446">
        <ele>1135.810</ele>
        <time>2022-06-13T02:55:42Z</time>
      </trkpt>
      <trkpt lat="40.323084" lon="-5.407283">
        <ele>1136.946</ele>
        <time>2022-06-13T02:56:22Z</time>
      </trkpt>
      <trkpt lat="40.322768" lon="-5.408260">
        <ele>1137.125</ele>
        <time>2022-06-13T02:57:02Z</time>
      </trkpt>
      <trkpt lat="40.322441" lon="-5.408968">
        <ele>1136.835</ele>
        <time>2022-06-13T02:57:42Z</time>
      </trkpt>
      <trkpt lat="40.322343" lon="-5.409247">
        <ele>1136.363</ele>
        <time>2022-06-13T02:58:22Z</time>
      </trkpt>
      <trkpt lat="40.322253" lon="-5.409547">
        <ele>1136.423</ele>
        <time>2022-06-13T02:59:02Z</time>
      </trkpt>
      <trkpt lat="40.322002" lon="-5.410033">
        <ele>1138.083</ele>
        <time>2022-06-13T02:59:42Z</time>
      </trkpt>
      <trkpt lat="40.321847" lon="-5.410355">
        <ele>1140.011</ele>
        <time>2022-06-13T03:00:22Z</time>
      </trkpt>
      <trkpt lat="40.321830" lon="-5.410570">
        <ele>1140.109</ele>
        <time>2022-06-13T03:01:02Z</time>
      </trkpt>
      <trkpt lat="40.321871" lon="-5.410913">
        <ele>1140.143</ele>
        <time>2022-06-13T03:01:42Z</time>
      </trkpt>
      <trkpt lat="40.321846" lon="-5.411605">
        <ele>1139.022</ele>
        <time>2022-06-13T03:02:22Z</time>
      </trkpt>
      <trkpt lat="40.321551" lon="-5.412118">
        <ele>1139.625</ele>
        <time>2022-06-13T03:03:02Z</time>
      </trkpt>
      <trkpt lat="40.321224" lon="-5.412360">
        <ele>1139.312</ele>
        <time>2022-06-13T03:03:42Z</time>
      </trkpt>
      <trkpt lat="40.321031" lon="-5.412436">
        <ele>1139.291</ele>
        <time>2022-06-13T03:04:22Z</time>
      </trkpt>
      <trkpt lat="40.320921" lon="-5.412413">
        <ele>1139.377</ele>
        <time>2022-06-13T03:05:02Z</time>
      </trkpt>
      <trkpt lat="40.320763" lon="-5.412384">
        <ele>1139.276</ele>
        <time>2022-06-13T03:05:42Z</time>
      </trkpt>
      <trkpt lat="40.320645" lon="-5.412357">
        <ele>1138.886</ele>
        <time>2022-06-13T03:06:22Z</time>
      </trkpt>
      <trkpt lat="40.320386" lon="-5.412219">
        <ele>1139.024</ele>
        <time>2022-06-13T03:07:02Z</time>
      </trkpt>
      <trkpt lat="40.320199" lon="-5.412135">
        <ele>1139.238</ele>
        <time>2022-06-13T03:07:42Z</time>
      </trkpt>
      <trkpt lat="40.320119" lon="-5.412123">
        <ele>1139.270</ele>
        <time>2022-06-13T03:08:22Z</time>
      </trkpt>
      <trkpt lat="40.320037" lon="-5.412136">
        <ele>1139.017</ele>
        <time>2022-06-13T03:09:02Z</time>
      </trkpt>
      <trkpt lat="40.319894" lon="-5.412241">
        <ele>1138.609</ele>
        <time>2022-06-13T03:09:42Z</time>
      </trkpt>
      <trkpt lat="40.319417" lon="-5.412533">
        <ele>1136.854</ele>
        <time>2022-06-13T03:10:22Z</time>
      </trkpt>
      <trkpt lat="40.319099" lon="-5.412680">
        <ele>1135.423</ele>
        <time>2022-06-13T03:11:02Z</time>
      </trkpt>
      <trkpt lat="40.318706" lon="-5.412933">
        <ele>1134.476</ele>
        <time>2022-06-13T03:11:42Z</time>
      </trkpt>
      <trkpt lat="40.318640" lon="-5.412987">
        <ele>1134.233</ele>
        <time>2022-06-13T03:12:22Z</time>
      </trkpt>
      <trkpt lat="40.318515" lon="-5.413080">
        <ele>1133.992</ele>
        <time>2022-06-13T03:13:02Z</time>
      </trkpt>
      <trkpt lat="40.318391" lon="-5.413180">
        <ele>1133.668</ele>
        <time>2022-06-13T03:13:42Z</time>
      </trkpt>
      <trkpt lat="40.318257" lon="-5.413207">
        <ele>1133.787</ele>
        <time>2022-06-13T03:14:22Z</time>
      </trkpt>
      <trkpt lat="40.318099" lon="-5.413202">
        <ele>1134.397</ele>
        <time>2022-06-13T03:15:02Z</time>
      </trkpt>
      <trkpt lat="40.317993" lon="-5.413199">
        <ele>1134.545</ele>
        <time>2022-06-13T03:15:42Z</time>
      </trkpt>
      <trkpt lat="40.317801" lon="-5.413363">
        <ele>1133.949</ele>
        <time>2022-06-13T03:16:22Z</time>
      </trkpt>
      <trkpt lat="40.317802" lon="-5.413487">
        <ele>1133.402</ele>
        <time>2022-06-13T03:17:02Z</time>
      </trkpt>
      <trkpt lat="40.317735" lon="-5.413624">
        <ele>1133.022</ele>
        <time>2022-06-13T03:17:42Z</time>
      </trkpt>
      <trkpt lat="40.317647" lon="-5.413737">
        <ele>1132.509</ele>
        <time>2022-06-13T03:18:22Z</time>
      </trkpt>
      <trkpt lat="40.317585" lon="-5.413877">
        <ele>1132.075</ele>
        <time>2022-06-13T03:19:02Z</time>
      </trkpt>
      <trkpt lat="40.317485" lon="-5.414108">
        <ele>1131.364</ele>
        <time>2022-06-13T03:19:42Z</time>
      </trkpt>
      <trkpt lat="40.317410" lon="-5.414248">
        <ele>1131.077</ele>
        <time>2022-06-13T03:20:22Z</time>
      </trkpt>
      <trkpt lat="40.317477" lon="-5.413808">
        <ele>1132.398</ele>
        <time>2022-06-12T23:22:09Z</time>
      </trkpt>
      <trkpt lat="40.317849" lon="-5.413379">
        <ele>1133.815</ele>
        <time>2022-06-12T23:22:49Z</time>
      </trkpt>
      <trkpt lat="40.318307" lon="-5.413159">
        <ele>1133.726</ele>
        <time>2022-06-12T23:23:29Z</time>
      </trkpt>
      <trkpt lat="40.318671" lon="-5.412993">
        <ele>1134.209</ele>
        <time>2022-06-12T23:24:09Z</time>
      </trkpt>
      <trkpt lat="40.319579" lon="-5.412478">
        <ele>1137.140</ele>
        <time>2022-06-12T23:24:49Z</time>
      </trkpt>
      <trkpt lat="40.320250" lon="-5.412226">
        <ele>1139.079</ele>
        <time>2022-06-12T23:25:29Z</time>
      </trkpt>
      <trkpt lat="40.321060" lon="-5.412537">
        <ele>1138.923</ele>
        <time>2022-06-12T23:26:09Z</time>
      </trkpt>
      <trkpt lat="40.321412" lon="-5.412247">
        <ele>1139.751</ele>
        <time>2022-06-12T23:26:49Z</time>
      </trkpt>
      <trkpt lat="40.321845" lon="-5.411314">
        <ele>1140.961</ele>
        <time>2022-06-12T23:27:29Z</time>
      </trkpt>
      <trkpt lat="40.321804" lon="-5.410402">
        <ele>1140.862</ele>
        <time>2022-06-12T23:28:09Z</time>
      </trkpt>
      <trkpt lat="40.322369" lon="-5.409071">
        <ele>1137.524</ele>
        <time>2022-06-12T23:28:49Z</time>
      </trkpt>
      <trkpt lat="40.322909" lon="-5.407859">
        <ele>1137.635</ele>
        <time>2022-06-12T23:29:29Z</time>
      </trkpt>
      <trkpt lat="40.323301" lon="-5.406486">
        <ele>1134.265</ele>
        <time>2022-06-12T23:30:09Z</time>
      </trkpt>
      <trkpt lat="40.323424" lon="-5.405692">
        <ele>1137.834</ele>
        <time>2022-06-12T23:30:49Z</time>
      </trkpt>
      <trkpt lat="40.323735" lon="-5.404544">
        <ele>1143.155</ele>
        <time>2022-06-12T23:31:29Z</time>
      </trkpt>
      <trkpt lat="40.324561" lon="-5.403203">
        <ele>1136.810</ele>
        <time>2022-06-12T23:32:09Z</time>
      </trkpt>
      <trkpt lat="40.325379" lon="-5.402355">
        <ele>1131.909</ele>
        <time>2022-06-12T23:32:49Z</time>
      </trkpt>
      <trkpt lat="40.325919" lon="-5.401626">
        <ele>1130.184</ele>
        <time>2022-06-12T23:33:29Z</time>
      </trkpt>
      <trkpt lat="40.326148" lon="-5.400993">
        <ele>1130.243</ele>
        <time>2022-06-12T23:34:09Z</time>
      </trkpt>
      <trkpt lat="40.327072" lon="-5.399963">
        <ele>1129.067</ele>
        <time>2022-06-12T23:34:49Z</time>
      </trkpt>
      <trkpt lat="40.327612" lon="-5.399512">
        <ele>1123.725</ele>
        <time>2022-06-12T23:35:29Z</time>
      </trkpt>
      <trkpt lat="40.328643" lon="-5.399555">
        <ele>1122.765</ele>
        <time>2022-06-12T23:36:09Z</time>
      </trkpt>
      <trkpt lat="40.328978" lon="-5.399029">
        <ele>1123.876</ele>
        <time>2022-06-12T23:36:49Z</time>
      </trkpt>
      <trkpt lat="40.329207" lon="-5.399501">
        <ele>1126.378</ele>
        <time>2022-06-12T23:37:29Z</time>
      </trkpt>
      <trkpt lat="40.329820" lon="-5.399630">
        <ele>1129.269</ele>
        <time>2022-06-12T23:38:09Z</time>
      </trkpt>
      <trkpt lat="40.330540" lon="-5.399469">
        <ele>1130.119</ele>
        <time>2022-06-12T23:38:49Z</time>
      </trkpt>
      <trkpt lat="40.330990" lon="-5.399748">
        <ele>1131.722</ele>
        <time>2022-06-12T23:39:29Z</time>
      </trkpt>
      <trkpt lat="40.331800" lon="-5.399287">
        <ele>1135.462</ele>
        <time>2022-06-12T23:40:09Z</time>
      </trkpt>
      <trkpt lat="40.332716" lon="-5.399780">
        <ele>1142.008</ele>
        <time>2022-06-12T23:40:49Z</time>
      </trkpt>
      <trkpt lat="40.333133" lon="-5.400113">
        <ele>1145.409</ele>
        <time>2022-06-12T23:41:29Z</time>
      </trkpt>
      <trkpt lat="40.333558" lon="-5.400821">
        <ele>1150.073</ele>
        <time>2022-06-12T23:42:09Z</time>
      </trkpt>
      <trkpt lat="40.333869" lon="-5.400585">
        <ele>1150.082</ele>
        <time>2022-06-12T23:42:49Z</time>
      </trkpt>
      <trkpt lat="40.334171" lon="-5.400016">
        <ele>1149.196</ele>
        <time>2022-06-12T23:43:29Z</time>
      </trkpt>
      <trkpt lat="40.334777" lon="-5.399319">
        <ele>1149.984</ele>
        <time>2022-06-12T23:44:09Z</time>
      </trkpt>
      <trkpt lat="40.335414" lon="-5.399051">
        <ele>1152.124</ele>
        <time>2022-06-12T23:44:49Z</time>
      </trkpt>
      <trkpt lat="40.336134" lon="-5.398761">
        <ele>1154.715</ele>
        <time>2022-06-12T23:45:29Z</time>
      </trkpt>
      <trkpt lat="40.336347" lon="-5.397441">
        <ele>1154.617</ele>
        <time>2022-06-12T23:46:09Z</time>
      </trkpt>
      <trkpt lat="40.336535" lon="-5.396143">
        <ele>1154.268</ele>
        <time>2022-06-12T23:46:49Z</time>
      </trkpt>
      <trkpt lat="40.337295" lon="-5.395542">
        <ele>1157.418</ele>
        <time>2022-06-12T23:47:29Z</time>
      </trkpt>
      <trkpt lat="40.337802" lon="-5.394319">
        <ele>1160.038</ele>
        <time>2022-06-12T23:48:09Z</time>
      </trkpt>
      <trkpt lat="40.337827" lon="-5.393300">
        <ele>1161.570</ele>
        <time>2022-06-12T23:48:49Z</time>
      </trkpt>
      <trkpt lat="40.338007" lon="-5.392141">
        <ele>1168.817</ele>
        <time>2022-06-12T23:49:29Z</time>
      </trkpt>
      <trkpt lat="40.338211" lon="-5.391465">
        <ele>1172.509</ele>
        <time>2022-06-12T23:50:09Z</time>
      </trkpt>
      <trkpt lat="40.338138" lon="-5.391347">
        <ele>1172.094</ele>
        <time>2022-06-12T23:50:49Z</time>
      </trkpt>
      <trkpt lat="40.339413" lon="-5.390081">
        <ele>1185.443</ele>
        <time>2022-06-12T23:51:29Z</time>
      </trkpt>
      <trkpt lat="40.340722" lon="-5.388408">
        <ele>1195.717</ele>
        <time>2022-06-12T23:52:09Z</time>
      </trkpt>
      <trkpt lat="40.341720" lon="-5.386820">
        <ele>1206.315</ele>
        <time>2022-06-12T23:52:49Z</time>
      </trkpt>
      <trkpt lat="40.342488" lon="-5.384481">
        <ele>1218.765</ele>
        <time>2022-06-12T23:53:29Z</time>
      </trkpt>
      <trkpt lat="40.343420" lon="-5.382657">
        <ele>1232.236</ele>
        <time>2022-06-12T23:54:09Z</time>
      </trkpt>
      <trkpt lat="40.344434" lon="-5.380747">
        <ele>1244.168</ele>
        <time>2022-06-12T23:54:49Z</time>
      </trkpt>
      <trkpt lat="40.344516" lon="-5.379996">
        <ele>1238.539</ele>
        <time>2022-06-12T23:55:29Z</time>
      </trkpt>
      <trkpt lat="40.344745" lon="-5.379546">
        <ele>1237.149</ele>
        <time>2022-06-12T23:56:09Z</time>
      </trkpt>
      <trkpt lat="40.345367" lon="-5.378795">
        <ele>1239.252</ele>
        <time>2022-06-12T23:56:49Z</time>
      </trkpt>
      <trkpt lat="40.346348" lon="-5.377743">
        <ele>1240.953</ele>
        <time>2022-06-12T23:57:29Z</time>
      </trkpt>
      <trkpt lat="40.347329" lon="-5.377035">
        <ele>1254.208</ele>
        <time>2022-06-12T23:58:09Z</time>
      </trkpt>
      <trkpt lat="40.347640" lon="-5.375533">
        <ele>1246.609</ele>
        <time>2022-06-12T23:58:49Z</time>
      </trkpt>
      <trkpt lat="40.347836" lon="-5.374010">
        <ele>1273.516</ele>
        <time>2022-06-12T23:59:29Z</time>
      </trkpt>
      <trkpt lat="40.348425" lon="-5.372615">
        <ele>1291.355</ele>
        <time>2022-06-13T00:00:09Z</time>
      </trkpt>
      <trkpt lat="40.349308" lon="-5.370727">
        <ele>1310.619</ele>
        <time>2022-06-13T00:00:49Z</time>
      </trkpt>
      <trkpt lat="40.349995" lon="-5.370147">
        <ele>1314.457</ele>
        <time>2022-06-13T00:01:29Z</time>
      </trkpt>
      <trkpt lat="40.350682" lon="-5.369933">
        <ele>1314.727</ele>
        <time>2022-06-13T00:02:09Z</time>
      </trkpt>
      <trkpt lat="40.351565" lon="-5.368559">
        <ele>1327.258</ele>
        <time>2022-06-13T00:02:49Z</time>
      </trkpt>
      <trkpt lat="40.352284" lon="-5.367529">
        <ele>1337.450</ele>
        <time>2022-06-13T00:03:29Z</time>
      </trkpt>
      <trkpt lat="40.353036" lon="-5.366628">
        <ele>1341.931</ele>
        <time>2022-06-13T00:04:09Z</time>
      </trkpt>
      <trkpt lat="40.353674" lon="-5.366886">
        <ele>1351.341</ele>
        <time>2022-06-13T00:04:49Z</time>
      </trkpt>
      <trkpt lat="40.354279" lon="-5.366907">
        <ele>1361.357</ele>
        <time>2022-06-13T00:05:29Z</time>
      </trkpt>
      <trkpt lat="40.354655" lon="-5.365169">
        <ele>1386.300</ele>
        <time>2022-06-13T00:06:09Z</time>
      </trkpt>
      <trkpt lat="40.355358" lon="-5.364203">
        <ele>1403.120</ele>
        <time>2022-06-13T00:06:49Z</time>
      </trkpt>
      <trkpt lat="40.356225" lon="-5.364611">
        <ele>1419.309</ele>
        <time>2022-06-13T00:07:29Z</time>
      </trkpt>
      <trkpt lat="40.356650" lon="-5.365405">
        <ele>1438.926</ele>
        <time>2022-06-13T00:08:09Z</time>
      </trkpt>
      <trkpt lat="40.357173" lon="-5.365984">
        <ele>1455.395</ele>
        <time>2022-06-13T00:08:49Z</time>
      </trkpt>
      <trkpt lat="40.357909" lon="-5.365727">
        <ele>1460.539</ele>
        <time>2022-06-13T00:09:29Z</time>
      </trkpt>
      <trkpt lat="40.358641" lon="-5.364390">
        <ele>1480.867</ele>
        <time>2022-06-12T23:21:56Z</time>
      </trkpt>
      <trkpt lat="40.359027" lon="-5.363975">
        <ele>1488.181</ele>
        <time>2022-06-12T23:22:36Z</time>
      </trkpt>
      <trkpt lat="40.359549" lon="-5.363125">
        <ele>1499.619</ele>
        <time>2022-06-12T23:23:16Z</time>
      </trkpt>
      <trkpt lat="40.359785" lon="-5.362473">
        <ele>1505.509</ele>
        <time>2022-06-12T23:23:56Z</time>
      </trkpt>
      <trkpt lat="40.359777" lon="-5.362170">
        <ele>1507.247</ele>
        <time>2022-06-12T23:24:36Z</time>
      </trkpt>
      <trkpt lat="40.359798" lon="-5.362093">
        <ele>1508.026</ele>
        <time>2022-06-12T23:25:16Z</time>
      </trkpt>
      <trkpt lat="40.359847" lon="-5.362052">
        <ele>1509.090</ele>
        <time>2022-06-12T23:25:56Z</time>
      </trkpt>
      <trkpt lat="40.359839" lon="-5.361996">
        <ele>1509.329</ele>
        <time>2022-06-12T23:26:36Z</time>
      </trkpt>
      <trkpt lat="40.359813" lon="-5.361827">
        <ele>1510.727</ele>
        <time>2022-06-12T23:27:16Z</time>
      </trkpt>
      <trkpt lat="40.359700" lon="-5.361615">
        <ele>1511.661</ele>
        <time>2022-06-12T23:27:56Z</time>
      </trkpt>
      <trkpt lat="40.359690" lon="-5.361473">
        <ele>1513.967</ele>
        <time>2022-06-12T23:28:36Z</time>
      </trkpt>
      <trkpt lat="40.359606" lon="-5.361344">
        <ele>1514.697</ele>
        <time>2022-06-12T23:29:16Z</time>
      </trkpt>
      <trkpt lat="40.359364" lon="-5.360994">
        <ele>1517.075</ele>
        <time>2022-06-12T23:29:56Z</time>
      </trkpt>
      <trkpt lat="40.359293" lon="-5.360806">
        <ele>1519.391</ele>
        <time>2022-06-12T23:30:36Z</time>
      </trkpt>
      <trkpt lat="40.359156" lon="-5.360683">
        <ele>1519.681</ele>
        <time>2022-06-12T23:31:16Z</time>
      </trkpt>
      <trkpt lat="40.359099" lon="-5.360551">
        <ele>1521.419</ele>
        <time>2022-06-12T23:31:56Z</time>
      </trkpt>
      <trkpt lat="40.358996" lon="-5.360364">
        <ele>1523.909</ele>
        <time>2022-06-12T23:32:36Z</time>
      </trkpt>
      <trkpt lat="40.358904" lon="-5.360195">
        <ele>1526.080</ele>
        <time>2022-06-12T23:33:16Z</time>
      </trkpt>
      <trkpt lat="40.358836" lon="-5.359935">
        <ele>1530.699</ele>
        <time>2022-06-12T23:33:56Z</time>
      </trkpt>
      <trkpt lat="40.358910" lon="-5.359820">
        <ele>1534.943</ele>
        <time>2022-06-12T23:34:36Z</time>
      </trkpt>
      <trkpt lat="40.359139" lon="-5.359782">
        <ele>1540.062</ele>
        <time>2022-06-12T23:35:16Z</time>
      </trkpt>
      <trkpt lat="40.359192" lon="-5.359694">
        <ele>1542.880</ele>
        <time>2022-06-12T23:35:56Z</time>
      </trkpt>
      <trkpt lat="40.359198" lon="-5.359639">
        <ele>1543.854</ele>
        <time>2022-06-12T23:36:36Z</time>
      </trkpt>
      <trkpt lat="40.359188" lon="-5.359620">
        <ele>1544.150</ele>
        <time>2022-06-12T23:37:16Z</time>
      </trkpt>
      <trkpt lat="40.359151" lon="-5.359580">
        <ele>1544.330</ele>
        <time>2022-06-12T23:37:56Z</time>
      </trkpt>
      <trkpt lat="40.359086" lon="-5.359519">
        <ele>1544.648</ele>
        <time>2022-06-12T23:38:36Z</time>
      </trkpt>
      <trkpt lat="40.359045" lon="-5.359390">
        <ele>1547.258</ele>
        <time>2022-06-12T23:39:16Z</time>
      </trkpt>
      <trkpt lat="40.359014" lon="-5.359210">
        <ele>1551.652</ele>
        <time>2022-06-12T23:39:56Z</time>
      </trkpt>
      <trkpt lat="40.358975" lon="-5.358993">
        <ele>1556.617</ele>
        <time>2022-06-12T23:40:36Z</time>
      </trkpt>
      <trkpt lat="40.358939" lon="-5.358802">
        <ele>1560.709</ele>
        <time>2022-06-12T23:41:16Z</time>
      </trkpt>
      <trkpt lat="40.358941" lon="-5.358658">
        <ele>1563.916</ele>
        <time>2022-06-12T23:41:56Z</time>
      </trkpt>
      <trkpt lat="40.358914" lon="-5.358510">
        <ele>1566.755</ele>
        <time>2022-06-12T23:42:36Z</time>
      </trkpt>
      <trkpt lat="40.358884" lon="-5.358339">
        <ele>1569.789</ele>
        <time>2022-06-12T23:43:16Z</time>
      </trkpt>
      <trkpt lat="40.358825" lon="-5.358229">
        <ele>1570.318</ele>
        <time>2022-06-12T23:43:56Z</time>
      </trkpt>
      <trkpt lat="40.358816" lon="-5.358056">
        <ele>1573.926</ele>
        <time>2022-06-12T23:44:36Z</time>
      </trkpt>
      <trkpt lat="40.358771" lon="-5.357890">
        <ele>1576.470</ele>
        <time>2022-06-12T23:45:16Z</time>
      </trkpt>
      <trkpt lat="40.358743" lon="-5.357653">
        <ele>1580.846</ele>
        <time>2022-06-12T23:45:56Z</time>
      </trkpt>
      <trkpt lat="40.358710" lon="-5.357372">
        <ele>1584.296</ele>
        <time>2022-06-12T23:46:36Z</time>
      </trkpt>
      <trkpt lat="40.358771" lon="-5.356876">
        <ele>1591.244</ele>
        <time>2022-06-12T23:47:16Z</time>
      </trkpt>
      <trkpt lat="40.358820" lon="-5.356629">
        <ele>1594.713</ele>
        <time>2022-06-12T23:47:56Z</time>
      </trkpt>
      <trkpt lat="40.358885" lon="-5.356361">
        <ele>1599.243</ele>
        <time>2022-06-12T23:48:36Z</time>
      </trkpt>
      <trkpt lat="40.358971" lon="-5.356176">
        <ele>1602.807</ele>
        <time>2022-06-12T23:49:16Z</time>
      </trkpt>
      <trkpt lat="40.359069" lon="-5.356123">
        <ele>1605.109</ele>
        <time>2022-06-12T23:49:56Z</time>
      </trkpt>
      <trkpt lat="40.359163" lon="-5.356085">
        <ele>1607.292</ele>
        <time>2022-06-12T23:50:36Z</time>
      </trkpt>
      <trkpt lat="40.359155" lon="-5.356053">
        <ele>1607.481</ele>
        <time>2022-06-12T23:51:16Z</time>
      </trkpt>
      <trkpt lat="40.359147" lon="-5.355983">
        <ele>1608.085</ele>
        <time>2022-06-12T23:51:56Z</time>
      </trkpt>
      <trkpt lat="40.359180" lon="-5.355940">
        <ele>1609.294</ele>
        <time>2022-06-12T23:52:36Z</time>
      </trkpt>
      <trkpt lat="40.359241" lon="-5.355857">
        <ele>1611.672</ele>
        <time>2022-06-12T23:53:16Z</time>
      </trkpt>
      <trkpt lat="40.359353" lon="-5.355801">
        <ele>1615.016</ele>
        <time>2022-06-12T23:53:56Z</time>
      </trkpt>
      <trkpt lat="40.359461" lon="-5.355723">
        <ele>1618.352</ele>
        <time>2022-06-12T23:54:36Z</time>
      </trkpt>
      <trkpt lat="40.359608" lon="-5.355467">
        <ele>1624.352</ele>
        <time>2022-06-12T23:55:16Z</time>
      </trkpt>
      <trkpt lat="40.359636" lon="-5.355304">
        <ele>1626.380</ele>
        <time>2022-06-12T23:55:56Z</time>
      </trkpt>
      <trkpt lat="40.359687" lon="-5.355175">
        <ele>1629.198</ele>
        <time>2022-06-12T23:56:36Z</time>
      </trkpt>
      <trkpt lat="40.359834" lon="-5.355038">
        <ele>1633.715</ele>
        <time>2022-06-12T23:57:16Z</time>
      </trkpt>
      <trkpt lat="40.359869" lon="-5.354956">
        <ele>1635.026</ele>
        <time>2022-06-12T23:57:56Z</time>
      </trkpt>
      <trkpt lat="40.360060" lon="-5.354766">
        <ele>1639.509</ele>
        <time>2022-06-12T23:58:36Z</time>
      </trkpt>
      <trkpt lat="40.360289" lon="-5.354554">
        <ele>1645.080</ele>
        <time>2022-06-12T23:59:16Z</time>
      </trkpt>
      <trkpt lat="40.360626" lon="-5.354258">
        <ele>1651.679</ele>
        <time>2022-06-12T23:59:56Z</time>
      </trkpt>
      <trkpt lat="40.360771" lon="-5.354132">
        <ele>1655.193</ele>
        <time>2022-06-13T00:00:36Z</time>
      </trkpt>
      <trkpt lat="40.360858" lon="-5.353982">
        <ele>1656.912</ele>
        <time>2022-06-13T00:01:16Z</time>
      </trkpt>
      <trkpt lat="40.361027" lon="-5.353655">
        <ele>1659.570</ele>
        <time>2022-06-13T00:01:56Z</time>
      </trkpt>
      <trkpt lat="40.361104" lon="-5.353433">
        <ele>1660.614</ele>
        <time>2022-06-13T00:02:36Z</time>
      </trkpt>
      <trkpt lat="40.361243" lon="-5.353191">
        <ele>1662.270</ele>
        <time>2022-06-13T00:03:16Z</time>
      </trkpt>
      <trkpt lat="40.361288" lon="-5.353130">
        <ele>1662.510</ele>
        <time>2022-06-13T00:03:56Z</time>
      </trkpt>
      <trkpt lat="40.361300" lon="-5.353062">
        <ele>1662.798</ele>
        <time>2022-06-13T00:04:36Z</time>
      </trkpt>
      <trkpt lat="40.361398" lon="-5.352902">
        <ele>1663.075</ele>
        <time>2022-06-13T00:05:16Z</time>
      </trkpt>
      <trkpt lat="40.361545" lon="-5.352867">
        <ele>1663.028</ele>
        <time>2022-06-13T00:05:56Z</time>
      </trkpt>
      <trkpt lat="40.361656" lon="-5.352968">
        <ele>1663.020</ele>
        <time>2022-06-13T00:06:36Z</time>
      </trkpt>
      <trkpt lat="40.361799" lon="-5.352984">
        <ele>1662.909</ele>
        <time>2022-06-13T00:07:16Z</time>
      </trkpt>
      <trkpt lat="40.361913" lon="-5.352944">
        <ele>1662.668</ele>
        <time>2022-06-13T00:07:56Z</time>
      </trkpt>
      <trkpt lat="40.362127" lon="-5.352932">
        <ele>1661.697</ele>
        <time>2022-06-13T00:08:36Z</time>
      </trkpt>
      <trkpt lat="40.362421" lon="-5.353071">
        <ele>1659.941</ele>
        <time>2022-06-13T00:09:16Z</time>
      </trkpt>
      <trkpt lat="40.362601" lon="-5.353125">
        <ele>1658.940</ele>
        <time>2022-06-13T00:09:56Z</time>
      </trkpt>
      <trkpt lat="40.362842" lon="-5.353125">
        <ele>1658.028</ele>
        <time>2022-06-13T00:10:36Z</time>
      </trkpt>
      <trkpt lat="40.362966" lon="-5.353039">
        <ele>1657.552</ele>
        <time>2022-06-13T00:11:16Z</time>
      </trkpt>
      <trkpt lat="40.363054" lon="-5.352948">
        <ele>1657.238</ele>
        <time>2022-06-13T00:11:56Z</time>
      </trkpt>
      <trkpt lat="40.363246" lon="-5.352744">
        <ele>1657.128</ele>
        <time>2022-06-13T00:12:36Z</time>
      </trkpt>
      <trkpt lat="40.363266" lon="-5.352685">
        <ele>1656.816</ele>
        <time>2022-06-13T00:13:16Z</time>
      </trkpt>
      <trkpt lat="40.363254" lon="-5.352599">
        <ele>1656.047</ele>
        <time>2022-06-13T00:13:56Z</time>
      </trkpt>
      <trkpt lat="40.363156" lon="-5.352363">
        <ele>1652.629</ele>
        <time>2022-06-13T00:14:36Z</time>
      </trkpt>
      <trkpt lat="40.363115" lon="-5.352189">
        <ele>1650.421</ele>
        <time>2022-06-13T00:15:16Z</time>
      </trkpt>
      <trkpt lat="40.363204" lon="-5.351952">
        <ele>1649.709</ele>
        <time>2022-06-13T00:15:56Z</time>
      </trkpt>
      <trkpt lat="40.363236" lon="-5.351788">
        <ele>1648.875</ele>
        <time>2022-06-13T00:16:36Z</time>
      </trkpt>
      <trkpt lat="40.363259" lon="-5.351654">
        <ele>1648.134</ele>
        <time>2022-06-13T00:17:16Z</time>
      </trkpt>
      <trkpt lat="40.363279" lon="-5.351442">
        <ele>1646.818</ele>
        <time>2022-06-13T00:17:56Z</time>
      </trkpt>
      <trkpt lat="40.363360" lon="-5.350760">
        <ele>1644.077</ele>
        <time>2022-06-13T00:18:36Z</time>
      </trkpt>
      <trkpt lat="40.363450" lon="-5.350503">
        <ele>1643.685</ele>
        <time>2022-06-13T00:19:16Z</time>
      </trkpt>
      <trkpt lat="40.363556" lon="-5.350264">
        <ele>1643.039</ele>
        <time>2022-06-13T00:19:56Z</time>
      </trkpt>
      <trkpt lat="40.363614" lon="-5.350071">
        <ele>1641.135</ele>
        <time>2022-06-13T00:20:36Z</time>
      </trkpt>
      <trkpt lat="40.363605" lon="-5.349789">
        <ele>1637.675</ele>
        <time>2022-06-13T00:21:16Z</time>
      </trkpt>
      <trkpt lat="40.363550" lon="-5.349583">
        <ele>1633.773</ele>
        <time>2022-06-13T00:21:56Z</time>
      </trkpt>
      <trkpt lat="40.363491" lon="-5.349478">
        <ele>1631.285</ele>
        <time>2022-06-13T00:22:36Z</time>
      </trkpt>
      <trkpt lat="40.363447" lon="-5.349019">
        <ele>1626.689</ele>
        <time>2022-06-13T00:23:16Z</time>
      </trkpt>
      <trkpt lat="40.363449" lon="-5.348847">
        <ele>1625.317</ele>
        <time>2022-06-13T00:23:56Z</time>
      </trkpt>
      <trkpt lat="40.363453" lon="-5.348753">
        <ele>1624.509</ele>
        <time>2022-06-13T00:24:36Z</time>
      </trkpt>
      <trkpt lat="40.363402" lon="-5.348713">
        <ele>1623.669</ele>
        <time>2022-06-13T00:25:16Z</time>
      </trkpt>
      <trkpt lat="40.363371" lon="-5.348555">
        <ele>1622.068</ele>
        <time>2022-06-13T00:25:56Z</time>
      </trkpt>
      <trkpt lat="40.363328" lon="-5.348442">
        <ele>1620.622</ele>
        <time>2022-06-13T00:26:36Z</time>
      </trkpt>
      <trkpt lat="40.363279" lon="-5.348369">
        <ele>1618.961</ele>
        <time>2022-06-13T00:27:16Z</time>
      </trkpt>
      <trkpt lat="40.363300" lon="-5.348171">
        <ele>1618.019</ele>
        <time>2022-06-13T00:27:56Z</time>
      </trkpt>
      <trkpt lat="40.363294" lon="-5.347932">
        <ele>1614.623</ele>
        <time>2022-06-13T00:28:36Z</time>
      </trkpt>
      <trkpt lat="40.363306" lon="-5.347825">
        <ele>1612.799</ele>
        <time>2022-06-13T00:29:16Z</time>
      </trkpt>
      <trkpt lat="40.363247" lon="-5.347798">
        <ele>1611.449</ele>
        <time>2022-06-13T00:29:56Z</time>
      </trkpt>
      <trkpt lat="40.363151" lon="-5.347766">
        <ele>1609.767</ele>
        <time>2022-06-13T00:30:36Z</time>
      </trkpt>
      <trkpt lat="40.363040" lon="-5.347761">
        <ele>1607.931</ele>
        <time>2022-06-13T00:31:16Z</time>
      </trkpt>
      <trkpt lat="40.362957" lon="-5.347801">
        <ele>1605.061</ele>
        <time>2022-06-13T00:31:56Z</time>
      </trkpt>
      <trkpt lat="40.362832" lon="-5.347916">
        <ele>1601.107</ele>
        <time>2022-06-13T00:32:36Z</time>
      </trkpt>
      <trkpt lat="40.362787" lon="-5.347986">
        <ele>1600.309</ele>
        <time>2022-06-13T00:33:16Z</time>
      </trkpt>
      <trkpt lat="40.362750" lon="-5.348010">
        <ele>1599.264</ele>
        <time>2022-06-13T00:33:56Z</time>
      </trkpt>
      <trkpt lat="40.362695" lon="-5.347790">
        <ele>1593.913</ele>
        <time>2022-06-13T00:34:36Z</time>
      </trkpt>
      <trkpt lat="40.362660" lon="-5.347645">
        <ele>1589.937</ele>
        <time>2022-06-13T00:35:16Z</time>
      </trkpt>
      <trkpt lat="40.362569" lon="-5.347358">
        <ele>1585.126</ele>
        <time>2022-06-13T00:35:56Z</time>
      </trkpt>
      <trkpt lat="40.362539" lon="-5.347313">
        <ele>1584.894</ele>
        <time>2022-06-13T00:36:36Z</time>
      </trkpt>
      <trkpt lat="40.362443" lon="-5.347286">
        <ele>1583.648</ele>
        <time>2022-06-13T00:37:16Z</time>
      </trkpt>
      <trkpt lat="40.362394" lon="-5.347323">
        <ele>1582.744</ele>
        <time>2022-06-13T00:37:56Z</time>
      </trkpt>
      <trkpt lat="40.362373" lon="-5.347331">
        <ele>1582.414</ele>
        <time>2022-06-13T00:38:36Z</time>
      </trkpt>
      <trkpt lat="40.362345" lon="-5.347240">
        <ele>1582.662</ele>
        <time>2022-06-13T00:39:16Z</time>
      </trkpt>
      <trkpt lat="40.362320" lon="-5.347026">
        <ele>1584.314</ele>
        <time>2022-06-13T00:39:56Z</time>
      </trkpt>
      <trkpt lat="40.362294" lon="-5.346546">
        <ele>1586.354</ele>
        <time>2022-06-13T00:40:36Z</time>
      </trkpt>
      <trkpt lat="40.362243" lon="-5.346116">
        <ele>1587.809</ele>
        <time>2022-06-13T00:41:16Z</time>
      </trkpt>
      <trkpt lat="40.362165" lon="-5.345874">
        <ele>1585.709</ele>
        <time>2022-06-13T00:41:56Z</time>
      </trkpt>
      <trkpt lat="40.362079" lon="-5.345654">
        <ele>1583.242</ele>
        <time>2022-06-13T00:42:36Z</time>
      </trkpt>
      <trkpt lat="40.361969" lon="-5.345352">
        <ele>1582.211</ele>
        <time>2022-06-13T00:43:16Z</time>
      </trkpt>
      <trkpt lat="40.361926" lon="-5.345298">
        <ele>1580.935</ele>
        <time>2022-06-13T00:43:56Z</time>
      </trkpt>
      <trkpt lat="40.361899" lon="-5.345239">
        <ele>1580.774</ele>
        <time>2022-06-13T00:44:36Z</time>
      </trkpt>
      <trkpt lat="40.361511" lon="-5.344714">
        <ele>1574.842</ele>
        <time>2022-06-13T00:45:16Z</time>
      </trkpt>
      <trkpt lat="40.361474" lon="-5.344657">
        <ele>1573.876</ele>
        <time>2022-06-13T00:45:56Z</time>
      </trkpt>
      <trkpt lat="40.361452" lon="-5.344593">
        <ele>1573.722</ele>
        <time>2022-06-13T00:46:36Z</time>
      </trkpt>
      <trkpt lat="40.361345" lon="-5.344472">
        <ele>1570.622</ele>
        <time>2022-06-13T00:47:16Z</time>
      </trkpt>
      <trkpt lat="40.361204" lon="-5.344274">
        <ele>1568.670</ele>
        <time>2022-06-13T00:47:56Z</time>
      </trkpt>
      <trkpt lat="40.361111" lon="-5.344113">
        <ele>1568.878</ele>
        <time>2022-06-13T00:48:36Z</time>
      </trkpt>
      <trkpt lat="40.360962" lon="-5.343850">
        <ele>1564.533</ele>
        <time>2022-06-13T00:49:16Z</time>
      </trkpt>
      <trkpt lat="40.360817" lon="-5.343566">
        <ele>1562.126</ele>
        <time>2022-06-13T00:49:56Z</time>
      </trkpt>
      <trkpt lat="40.360695" lon="-5.343378">
        <ele>1561.109</ele>
        <time>2022-06-13T00:50:36Z</time>
      </trkpt>
      <trkpt lat="40.360476" lon="-5.343068">
        <ele>1560.778</ele>
        <time>2022-06-13T00:51:16Z</time>
      </trkpt>
      <trkpt lat="40.360368" lon="-5.342950">
        <ele>1562.067</ele>
        <time>2022-06-13T00:51:56Z</time>
      </trkpt>
      <trkpt lat="40.360192" lon="-5.342853">
        <ele>1561.161</ele>
        <time>2022-06-13T00:52:36Z</time>
      </trkpt>
      <trkpt lat="40.360079" lon="-5.342785">
        <ele>1561.460</ele>
        <time>2022-06-13T00:53:16Z</time>
      </trkpt>
      <trkpt lat="40.359944" lon="-5.342726">
        <ele>1562.068</ele>
        <time>2022-06-13T00:53:56Z</time>
      </trkpt>
      <trkpt lat="40.359822" lon="-5.342715">
        <ele>1562.322</ele>
        <time>2022-06-13T00:54:36Z</time>
      </trkpt>
      <trkpt lat="40.359736" lon="-5.342707">
        <ele>1562.698</ele>
        <time>2022-06-13T00:55:16Z</time>
      </trkpt>
      <trkpt lat="40.359646" lon="-5.342686">
        <ele>1562.438</ele>
        <time>2022-06-13T00:55:56Z</time>
      </trkpt>
      <trkpt lat="40.359516" lon="-5.342762">
        <ele>1560.156</ele>
        <time>2022-06-13T00:56:36Z</time>
      </trkpt>
      <trkpt lat="40.359424" lon="-5.342775">
        <ele>1560.097</ele>
        <time>2022-06-13T00:57:16Z</time>
      </trkpt>
      <trkpt lat="40.359385" lon="-5.342789">
        <ele>1560.023</ele>
        <time>2022-06-13T00:57:56Z</time>
      </trkpt>
      <trkpt lat="40.359344" lon="-5.342762">
        <ele>1559.925</ele>
        <time>2022-06-13T00:58:36Z</time>
      </trkpt>
      <trkpt lat="40.359308" lon="-5.342754">
        <ele>1559.709</ele>
        <time>2022-06-13T00:59:16Z</time>
      </trkpt>
      <trkpt lat="40.359281" lon="-5.342740">
        <ele>1559.410</ele>
        <time>2022-06-13T00:59:56Z</time>
      </trkpt>
      <trkpt lat="40.359250" lon="-5.342657">
        <ele>1557.989</ele>
        <time>2022-06-13T01:00:36Z</time>
      </trkpt>
      <trkpt lat="40.359283" lon="-5.342585">
        <ele>1557.293</ele>
        <time>2022-06-13T01:01:16Z</time>
      </trkpt>
      <trkpt lat="40.359294" lon="-5.342553">
        <ele>1556.952</ele>
        <time>2022-06-13T01:01:56Z</time>
      </trkpt>
      <trkpt lat="40.359312" lon="-5.342512">
        <ele>1556.880</ele>
        <time>2022-06-13T01:02:36Z</time>
      </trkpt>
      <trkpt lat="40.359302" lon="-5.342499">
        <ele>1556.494</ele>
        <time>2022-06-13T01:03:16Z</time>
      </trkpt>
      <trkpt lat="40.359261" lon="-5.342502">
        <ele>1555.480</ele>
        <time>2022-06-13T01:03:56Z</time>
      </trkpt>
      <trkpt lat="40.359214" lon="-5.342534">
        <ele>1554.960</ele>
        <time>2022-06-13T01:04:36Z</time>
      </trkpt>
      <trkpt lat="40.359193" lon="-5.342539">
        <ele>1554.648</ele>
        <time>2022-06-13T01:05:16Z</time>
      </trkpt>
      <trkpt lat="40.359183" lon="-5.342494">
        <ele>1553.324</ele>
        <time>2022-06-13T01:05:56Z</time>
      </trkpt>
      <trkpt lat="40.359187" lon="-5.342453">
        <ele>1552.504</ele>
        <time>2022-06-13T01:06:36Z</time>
      </trkpt>
      <trkpt lat="40.359212" lon="-5.342424">
        <ele>1552.714</ele>
        <time>2022-06-13T01:07:16Z</time>
      </trkpt>
      <trkpt lat="40.359238" lon="-5.342376">
        <ele>1552.609</ele>
        <time>2022-06-13T01:07:56Z</time>
      </trkpt>
      <trkpt lat="40.359238" lon="-5.342330">
        <ele>1551.863</ele>
        <time>2022-06-13T01:08:36Z</time>
      </trkpt>
      <trkpt lat="40.359183" lon="-5.342389">
        <ele>1551.132</ele>
        <time>2022-06-13T01:09:16Z</time>
      </trkpt>
      <trkpt lat="40.359167" lon="-5.342394">
        <ele>1550.786</ele>
        <time>2022-06-13T01:09:56Z</time>
      </trkpt>
      <trkpt lat="40.359155" lon="-5.342354">
        <ele>1549.275</ele>
        <time>2022-06-13T01:10:36Z</time>
      </trkpt>
      <trkpt lat="40.359171" lon="-5.342276">
        <ele>1548.343</ele>
        <time>2022-06-13T01:11:16Z</time>
      </trkpt>
      <trkpt lat="40.359187" lon="-5.342239">
        <ele>1548.217</ele>
        <time>2022-06-13T01:11:56Z</time>
      </trkpt>
      <trkpt lat="40.359214" lon="-5.342196">
        <ele>1548.233</ele>
        <time>2022-06-13T01:12:36Z</time>
      </trkpt>
      <trkpt lat="40.359216" lon="-5.342110">
        <ele>1546.313</ele>
        <time>2022-06-13T01:13:16Z</time>
      </trkpt>
      <trkpt lat="40.359208" lon="-5.342064">
        <ele>1544.891</ele>
        <time>2022-06-13T01:13:56Z</time>
      </trkpt>
      <trkpt lat="40.359167" lon="-5.342101">
        <ele>1544.079</ele>
        <time>2022-06-13T01:14:36Z</time>
      </trkpt>
      <trkpt lat="40.359155" lon="-5.342139">
        <ele>1544.405</ele>
        <time>2022-06-13T01:15:16Z</time>
      </trkpt>
      <trkpt lat="40.359106" lon="-5.342182">
        <ele>1543.125</ele>
        <time>2022-06-13T01:15:56Z</time>
      </trkpt>
      <trkpt lat="40.359057" lon="-5.342235">
        <ele>1541.709</ele>
        <time>2022-06-13T01:16:36Z</time>
      </trkpt>
      <trkpt lat="40.358973" lon="-5.342337">
        <ele>1539.488</ele>
        <time>2022-06-13T01:17:16Z</time>
      </trkpt>
      <trkpt lat="40.358932" lon="-5.342380">
        <ele>1538.137</ele>
        <time>2022-06-13T01:17:56Z</time>
      </trkpt>
      <trkpt lat="40.358918" lon="-5.342345">
        <ele>1536.781</ele>
        <time>2022-06-13T01:18:36Z</time>
      </trkpt>
      <trkpt lat="40.358916" lon="-5.342257">
        <ele>1535.090</ele>
        <time>2022-06-13T01:19:16Z</time>
      </trkpt>
      <trkpt lat="40.358912" lon="-5.342195">
        <ele>1533.888</ele>
        <time>2022-06-13T01:19:56Z</time>
      </trkpt>
      <trkpt lat="40.358926" lon="-5.342031">
        <ele>1532.442</ele>
        <time>2022-06-13T01:20:36Z</time>
      </trkpt>
      <trkpt lat="40.358938" lon="-5.341994">
        <ele>1532.428</ele>
        <time>2022-06-13T01:21:16Z</time>
      </trkpt>
      <trkpt lat="40.358914" lon="-5.341943">
        <ele>1530.978</ele>
        <time>2022-06-13T01:21:56Z</time>
      </trkpt>
      <trkpt lat="40.358893" lon="-5.341822">
        <ele>1528.416</ele>
        <time>2022-06-13T01:22:36Z</time>
      </trkpt>
      <trkpt lat="40.358877" lon="-5.341771">
        <ele>1526.916</ele>
        <time>2022-06-13T01:23:16Z</time>
      </trkpt>
      <trkpt lat="40.358873" lon="-5.341744">
        <ele>1526.376</ele>
        <time>2022-06-13T01:23:56Z</time>
      </trkpt>
      <trkpt lat="40.358848" lon="-5.341742">
        <ele>1525.013</ele>
        <time>2022-06-13T01:24:36Z</time>
      </trkpt>
      <trkpt lat="40.358803" lon="-5.341849">
        <ele>1524.109</ele>
        <time>2022-06-13T01:25:16Z</time>
      </trkpt>
      <trkpt lat="40.358760" lon="-5.341913">
        <ele>1522.642</ele>
        <time>2022-06-13T01:25:56Z</time>
      </trkpt>
      <trkpt lat="40.358711" lon="-5.341962">
        <ele>1520.661</ele>
        <time>2022-06-13T01:26:36Z</time>
      </trkpt>
      <trkpt lat="40.358627" lon="-5.342166">
        <ele>1519.075</ele>
        <time>2022-06-13T01:27:16Z</time>
      </trkpt>
      <trkpt lat="40.358533" lon="-5.342444">
        <ele>1515.834</ele>
        <time>2022-06-13T01:27:56Z</time>
      </trkpt>
      <trkpt lat="40.358462" lon="-5.342605">
        <ele>1514.022</ele>
        <time>2022-06-13T01:28:36Z</time>
      </trkpt>
      <trkpt lat="40.358425" lon="-5.342697">
        <ele>1513.516</ele>
        <time>2022-06-13T01:29:16Z</time>
      </trkpt>
      <trkpt lat="40.358372" lon="-5.342874">
        <ele>1510.852</ele>
        <time>2022-06-13T01:29:56Z</time>
      </trkpt>
      <trkpt lat="40.358346" lon="-5.342965">
        <ele>1508.112</ele>
        <time>2022-06-13T01:30:36Z</time>
      </trkpt>
      <trkpt lat="40.358336" lon="-5.343110">
        <ele>1505.460</ele>
        <time>2022-06-13T01:31:16Z</time>
      </trkpt>
      <trkpt lat="40.358317" lon="-5.343233">
        <ele>1502.784</ele>
        <time>2022-06-13T01:31:56Z</time>
      </trkpt>
      <trkpt lat="40.358366" lon="-5.343367">
        <ele>1503.507</ele>
        <time>2022-06-13T01:32:36Z</time>
      </trkpt>
      <trkpt lat="40.358399" lon="-5.343491">
        <ele>1503.217</ele>
        <time>2022-06-13T01:33:16Z</time>
      </trkpt>
      <trkpt lat="40.358432" lon="-5.343582">
        <ele>1502.909</ele>
        <time>2022-06-13T01:33:56Z</time>
      </trkpt>
      <trkpt lat="40.358460" lon="-5.343694">
        <ele>1500.559</ele>
        <time>2022-06-13T01:34:36Z</time>
      </trkpt>
      <trkpt lat="40.358509" lon="-5.343823">
        <ele>1497.678</ele>
        <time>2022-06-13T01:35:16Z</time>
      </trkpt>
      <trkpt lat="40.358534" lon="-5.343922">
        <ele>1494.942</ele>
        <time>2022-06-13T01:35:56Z</time>
      </trkpt>
      <trkpt lat="40.358637" lon="-5.344007">
        <ele>1495.131</ele>
        <time>2022-06-13T01:36:36Z</time>
      </trkpt>
      <trkpt lat="40.358696" lon="-5.344099">
        <ele>1493.239</ele>
        <time>2022-06-13T01:37:16Z</time>
      </trkpt>
      <trkpt lat="40.358674" lon="-5.344120">
        <ele>1492.213</ele>
        <time>2022-06-13T01:37:56Z</time>
      </trkpt>
      <trkpt lat="40.358617" lon="-5.344120">
        <ele>1491.429</ele>
        <time>2022-06-13T01:38:36Z</time>
      </trkpt>
      <trkpt lat="40.358551" lon="-5.344153">
        <ele>1488.989</ele>
        <time>2022-06-13T01:39:16Z</time>
      </trkpt>
      <trkpt lat="40.358512" lon="-5.344164">
        <ele>1487.657</ele>
        <time>2022-06-13T01:39:56Z</time>
      </trkpt>
      <trkpt lat="40.358443" lon="-5.344148">
        <ele>1486.379</ele>
        <time>2022-06-13T01:40:36Z</time>
      </trkpt>
      <trkpt lat="40.358422" lon="-5.344132">
        <ele>1486.105</ele>
        <time>2022-06-13T01:41:16Z</time>
      </trkpt>
      <trkpt lat="40.358300" lon="-5.344065">
        <ele>1484.625</ele>
        <time>2022-06-13T01:41:56Z</time>
      </trkpt>
      <trkpt lat="40.358216" lon="-5.343993">
        <ele>1483.709</ele>
        <time>2022-06-13T01:42:36Z</time>
      </trkpt>
      <trkpt lat="40.358157" lon="-5.343921">
        <ele>1483.658</ele>
        <time>2022-06-13T01:43:16Z</time>
      </trkpt>
      <trkpt lat="40.358114" lon="-5.343851">
        <ele>1483.757</ele>
        <time>2022-06-13T01:43:56Z</time>
      </trkpt>
      <trkpt lat="40.358087" lon="-5.343781">
        <ele>1484.131</ele>
        <time>2022-06-13T01:44:36Z</time>
      </trkpt>
      <trkpt lat="40.358022" lon="-5.343650">
        <ele>1483.880</ele>
        <time>2022-06-13T01:45:16Z</time>
      </trkpt>
      <trkpt lat="40.357983" lon="-5.343558">
        <ele>1483.348</ele>
        <time>2022-06-13T01:45:56Z</time>
      </trkpt>
      <trkpt lat="40.357928" lon="-5.343355">
        <ele>1483.312</ele>
        <time>2022-06-13T01:46:36Z</time>
      </trkpt>
      <trkpt lat="40.357871" lon="-5.343151">
        <ele>1481.178</ele>
        <time>2022-06-13T01:47:16Z</time>
      </trkpt>
      <trkpt lat="40.357830" lon="-5.342866">
        <ele>1479.718</ele>
        <time>2022-06-13T01:47:56Z</time>
      </trkpt>
      <trkpt lat="40.357805" lon="-5.342523">
        <ele>1480.136</ele>
        <time>2022-06-13T01:48:36Z</time>
      </trkpt>
      <trkpt lat="40.357805" lon="-5.342394">
        <ele>1480.276</ele>
        <time>2022-06-13T01:49:16Z</time>
      </trkpt>
      <trkpt lat="40.357826" lon="-5.342290">
        <ele>1481.090</ele>
        <time>2022-06-13T01:49:56Z</time>
      </trkpt>
      <trkpt lat="40.357826" lon="-5.342196">
        <ele>1480.819</ele>
        <time>2022-06-13T01:50:36Z</time>
      </trkpt>
      <trkpt lat="40.357811" lon="-5.342094">
        <ele>1479.909</ele>
        <time>2022-06-13T01:51:16Z</time>
      </trkpt>
      <trkpt lat="40.357809" lon="-5.341976">
        <ele>1479.358</ele>
        <time>2022-06-13T01:51:56Z</time>
      </trkpt>
      <trkpt lat="40.357849" lon="-5.341816">
        <ele>1480.817</ele>
        <time>2022-06-13T01:52:36Z</time>
      </trkpt>
      <trkpt lat="40.357877" lon="-5.341596">
        <ele>1480.781</ele>
        <time>2022-06-13T01:53:16Z</time>
      </trkpt>
      <trkpt lat="40.357886" lon="-5.341344">
        <ele>1477.990</ele>
        <time>2022-06-13T01:53:56Z</time>
      </trkpt>
      <trkpt lat="40.357988" lon="-5.341070">
        <ele>1478.218</ele>
        <time>2022-06-13T01:54:36Z</time>
      </trkpt>
      <trkpt lat="40.358040" lon="-5.340769">
        <ele>1477.732</ele>
        <time>2022-06-13T01:55:16Z</time>
      </trkpt>
      <trkpt lat="40.358091" lon="-5.340616">
        <ele>1478.098</ele>
        <time>2022-06-13T01:55:56Z</time>
      </trkpt>
      <trkpt lat="40.358095" lon="-5.340517">
        <ele>1477.078</ele>
        <time>2022-06-13T01:56:36Z</time>
      </trkpt>
      <trkpt lat="40.358134" lon="-5.340420">
        <ele>1477.446</ele>
        <time>2022-06-13T01:57:16Z</time>
      </trkpt>
      <trkpt lat="40.358206" lon="-5.340316">
        <ele>1478.829</ele>
        <time>2022-06-13T01:57:56Z</time>
      </trkpt>
      <trkpt lat="40.358250" lon="-5.340152">
        <ele>1478.600</ele>
        <time>2022-06-13T01:58:36Z</time>
      </trkpt>
      <trkpt lat="40.358263" lon="-5.340045">
        <ele>1478.020</ele>
        <time>2022-06-13T01:59:16Z</time>
      </trkpt>
      <trkpt lat="40.358390" lon="-5.339780">
        <ele>1478.709</ele>
        <time>2022-06-13T01:59:56Z</time>
      </trkpt>
      <trkpt lat="40.358447" lon="-5.339592">
        <ele>1477.673</ele>
        <time>2022-06-13T02:00:36Z</time>
      </trkpt>
      <trkpt lat="40.358537" lon="-5.339509">
        <ele>1479.012</ele>
        <time>2022-06-13T02:01:16Z</time>
      </trkpt>
      <trkpt lat="40.358629" lon="-5.339262">
        <ele>1476.686</ele>
        <time>2022-06-13T02:01:56Z</time>
      </trkpt>
      <trkpt lat="40.358724" lon="-5.339075">
        <ele>1475.565</ele>
        <time>2022-06-13T02:02:36Z</time>
      </trkpt>
      <trkpt lat="40.358807" lon="-5.339032">
        <ele>1477.353</ele>
        <time>2022-06-13T02:03:16Z</time>
      </trkpt>
      <trkpt lat="40.358869" lon="-5.338898">
        <ele>1476.547</ele>
        <time>2022-06-13T02:03:56Z</time>
      </trkpt>
      <trkpt lat="40.358946" lon="-5.338731">
        <ele>1475.273</ele>
        <time>2022-06-13T02:04:36Z</time>
      </trkpt>
      <trkpt lat="40.359008" lon="-5.338509">
        <ele>1473.333</ele>
        <time>2022-06-13T02:05:16Z</time>
      </trkpt>
      <trkpt lat="40.359020" lon="-5.338426">
        <ele>1472.861</ele>
        <time>2022-06-13T02:05:56Z</time>
      </trkpt>
      <trkpt lat="40.359020" lon="-5.338345">
        <ele>1471.916</ele>
        <time>2022-06-13T02:06:36Z</time>
      </trkpt>
      <trkpt lat="40.358975" lon="-5.338187">
        <ele>1469.376</ele>
        <time>2022-06-13T02:07:16Z</time>
      </trkpt>
      <trkpt lat="40.358971" lon="-5.338125">
        <ele>1468.613</ele>
        <time>2022-06-13T02:07:56Z</time>
      </trkpt>
      <trkpt lat="40.358946" lon="-5.337870">
        <ele>1466.109</ele>
        <time>2022-06-13T02:08:36Z</time>
      </trkpt>
      <trkpt lat="40.358944" lon="-5.337688">
        <ele>1464.762</ele>
        <time>2022-06-13T02:09:16Z</time>
      </trkpt>
      <trkpt lat="40.358931" lon="-5.337514">
        <ele>1463.241</ele>
        <time>2022-06-13T02:09:56Z</time>
      </trkpt>
      <trkpt lat="40.358931" lon="-5.337412">
        <ele>1462.865</ele>
        <time>2022-06-13T02:10:36Z</time>
      </trkpt>
      <trkpt lat="40.358931" lon="-5.337299">
        <ele>1462.634</ele>
        <time>2022-06-13T02:11:16Z</time>
      </trkpt>
      <trkpt lat="40.358837" lon="-5.337129">
        <ele>1459.062</ele>
        <time>2022-06-13T02:11:56Z</time>
      </trkpt>
      <trkpt lat="40.358829" lon="-5.337009">
        <ele>1458.876</ele>
        <time>2022-06-13T02:12:36Z</time>
      </trkpt>
      <trkpt lat="40.358817" lon="-5.336628">
        <ele>1457.782</ele>
        <time>2022-06-13T02:13:16Z</time>
      </trkpt>
      <trkpt lat="40.358858" lon="-5.336475">
        <ele>1457.762</ele>
        <time>2022-06-13T02:13:56Z</time>
      </trkpt>
      <trkpt lat="40.358909" lon="-5.336370">
        <ele>1458.420</ele>
        <time>2022-06-13T02:14:36Z</time>
      </trkpt>
      <trkpt lat="40.358968" lon="-5.336268">
        <ele>1458.843</ele>
        <time>2022-06-13T02:15:16Z</time>
      </trkpt>
      <trkpt lat="40.358958" lon="-5.336123">
        <ele>1456.964</ele>
        <time>2022-06-13T02:15:56Z</time>
      </trkpt>
      <trkpt lat="40.358945" lon="-5.335912">
        <ele>1454.310</ele>
        <time>2022-06-13T02:16:36Z</time>
      </trkpt>
      <trkpt lat="40.358945" lon="-5.335732">
        <ele>1452.609</ele>
        <time>2022-06-13T02:17:16Z</time>
      </trkpt>
      <trkpt lat="40.358973" lon="-5.335624">
        <ele>1452.435</ele>
        <time>2022-06-13T02:17:56Z</time>
      </trkpt>
      <trkpt lat="40.359000" lon="-5.335457">
        <ele>1451.314</ele>
        <time>2022-06-13T02:18:36Z</time>
      </trkpt>
      <trkpt lat="40.359024" lon="-5.335283">
        <ele>1450.048</ele>
        <time>2022-06-13T02:19:16Z</time>
      </trkpt>
      <trkpt lat="40.359029" lon="-5.335170">
        <ele>1449.147</ele>
        <time>2022-06-13T02:19:56Z</time>
      </trkpt>
      <trkpt lat="40.359061" lon="-5.335103">
        <ele>1449.295</ele>
        <time>2022-06-13T02:20:36Z</time>
      </trkpt>
      <trkpt lat="40.359049" lon="-5.335028">
        <ele>1448.389</ele>
        <time>2022-06-13T02:21:16Z</time>
      </trkpt>
      <trkpt lat="40.359049" lon="-5.334948">
        <ele>1447.685</ele>
        <time>2022-06-13T02:21:56Z</time>
      </trkpt>
      <trkpt lat="40.359049" lon="-5.334862">
        <ele>1446.875</ele>
        <time>2022-06-13T02:22:36Z</time>
      </trkpt>
      <trkpt lat="40.359072" lon="-5.334620">
        <ele>1444.843</ele>
        <time>2022-06-13T02:23:16Z</time>
      </trkpt>
      <trkpt lat="40.359107" lon="-5.334501">
        <ele>1444.124</ele>
        <time>2022-06-13T02:23:56Z</time>
      </trkpt>
      <trkpt lat="40.359196" lon="-5.334216">
        <ele>1443.404</ele>
        <time>2022-06-13T02:24:36Z</time>
      </trkpt>
      <trkpt lat="40.359280" lon="-5.334053">
        <ele>1443.914</ele>
        <time>2022-06-13T02:25:16Z</time>
      </trkpt>
      <trkpt lat="40.359335" lon="-5.333760">
        <ele>1441.809</ele>
        <time>2022-06-13T02:25:56Z</time>
      </trkpt>
      <trkpt lat="40.359294" lon="-5.333581">
        <ele>1438.923</ele>
        <time>2022-06-13T02:26:36Z</time>
      </trkpt>
      <trkpt lat="40.359202" lon="-5.333506">
        <ele>1435.852</ele>
        <time>2022-06-13T02:27:16Z</time>
      </trkpt>
      <trkpt lat="40.359023" lon="-5.333219">
        <ele>1426.326</ele>
        <time>2022-06-13T02:27:56Z</time>
      </trkpt>
      <trkpt lat="40.358921" lon="-5.333067">
        <ele>1422.065</ele>
        <time>2022-06-13T02:28:36Z</time>
      </trkpt>
      <trkpt lat="40.358897" lon="-5.332680">
        <ele>1417.173</ele>
        <time>2022-06-13T02:29:16Z</time>
      </trkpt>
      <trkpt lat="40.358739" lon="-5.332329">
        <ele>1411.937</ele>
        <time>2022-06-13T02:29:56Z</time>
      </trkpt>
      <trkpt lat="40.358718" lon="-5.331945">
        <ele>1406.213</ele>
        <time>2022-06-13T02:30:36Z</time>
      </trkpt>
      <trkpt lat="40.358686" lon="-5.331441">
        <ele>1397.883</ele>
        <time>2022-06-13T02:31:16Z</time>
      </trkpt>
      <trkpt lat="40.358583" lon="-5.331050">
        <ele>1389.871</ele>
        <time>2022-06-13T02:31:56Z</time>
      </trkpt>
      <trkpt lat="40.358457" lon="-5.330781">
        <ele>1385.459</ele>
        <time>2022-06-13T02:32:36Z</time>
      </trkpt>
      <trkpt lat="40.358277" lon="-5.330631">
        <ele>1384.103</ele>
        <time>2022-06-13T02:33:16Z</time>
      </trkpt>
      <trkpt lat="40.357791" lon="-5.330277">
        <ele>1379.223</ele>
        <time>2022-06-13T02:33:56Z</time>
      </trkpt>
      <trkpt lat="40.357556" lon="-5.329980">
        <ele>1375.009</ele>
        <time>2022-06-13T02:34:36Z</time>
      </trkpt>
      <trkpt lat="40.357400" lon="-5.329626">
        <ele>1373.916</ele>
        <time>2022-06-13T02:35:16Z</time>
      </trkpt>
      <trkpt lat="40.357184" lon="-5.329235">
        <ele>1369.845</ele>
        <time>2022-06-13T02:35:56Z</time>
      </trkpt>
      <trkpt lat="40.357139" lon="-5.329208">
        <ele>1369.259</ele>
        <time>2022-06-13T02:36:36Z</time>
      </trkpt>
      <trkpt lat="40.357033" lon="-5.329106">
        <ele>1368.088</ele>
        <time>2022-06-13T02:37:16Z</time>
      </trkpt>
      <trkpt lat="40.356988" lon="-5.328982">
        <ele>1367.736</ele>
        <time>2022-06-13T02:37:56Z</time>
      </trkpt>
      <trkpt lat="40.356779" lon="-5.328923">
        <ele>1365.040</ele>
        <time>2022-06-13T02:38:36Z</time>
      </trkpt>
      <trkpt lat="40.356559" lon="-5.328779">
        <ele>1362.856</ele>
        <time>2022-06-13T02:39:16Z</time>
      </trkpt>
      <trkpt lat="40.356142" lon="-5.328553">
        <ele>1357.926</ele>
        <time>2022-06-13T02:39:56Z</time>
      </trkpt>
      <trkpt lat="40.356017" lon="-5.328441">
        <ele>1356.044</ele>
        <time>2022-06-13T02:40:36Z</time>
      </trkpt>
      <trkpt lat="40.355825" lon="-5.328323">
        <ele>1353.985</ele>
        <time>2022-06-13T02:41:16Z</time>
      </trkpt>
      <trkpt lat="40.355711" lon="-5.328194">
        <ele>1353.189</ele>
        <time>2022-06-13T02:41:56Z</time>
      </trkpt>
      <trkpt lat="40.355637" lon="-5.327983">
        <ele>1352.017</ele>
        <time>2022-06-13T02:42:36Z</time>
      </trkpt>
      <trkpt lat="40.355576" lon="-5.327833">
        <ele>1351.209</ele>
        <time>2022-06-13T02:43:16Z</time>
      </trkpt>
      <trkpt lat="40.355502" lon="-5.327736">
        <ele>1351.079</ele>
        <time>2022-06-13T02:43:56Z</time>
      </trkpt>
      <trkpt lat="40.355359" lon="-5.327709">
        <ele>1350.888</ele>
        <time>2022-06-13T02:44:36Z</time>
      </trkpt>
      <trkpt lat="40.355241" lon="-5.327784">
        <ele>1350.982</ele>
        <time>2022-06-13T02:45:16Z</time>
      </trkpt>
      <trkpt lat="40.355049" lon="-5.327892">
        <ele>1350.271</ele>
        <time>2022-06-13T02:45:56Z</time>
      </trkpt>
      <trkpt lat="40.354943" lon="-5.328063">
        <ele>1350.029</ele>
        <time>2022-06-13T02:46:36Z</time>
      </trkpt>
      <trkpt lat="40.354849" lon="-5.328235">
        <ele>1349.373</ele>
        <time>2022-06-13T02:47:16Z</time>
      </trkpt>
      <trkpt lat="40.354763" lon="-5.328283">
        <ele>1348.659</ele>
        <time>2022-06-13T02:47:56Z</time>
      </trkpt>
      <trkpt lat="40.354730" lon="-5.328439">
        <ele>1347.369</ele>
        <time>2022-06-13T02:48:36Z</time>
      </trkpt>
      <trkpt lat="40.354714" lon="-5.328621">
        <ele>1345.867</ele>
        <time>2022-06-13T02:49:16Z</time>
      </trkpt>
      <trkpt lat="40.354586" lon="-5.328727">
        <ele>1342.758</ele>
        <time>2022-06-13T02:49:56Z</time>
      </trkpt>
      <trkpt lat="40.354341" lon="-5.328475">
        <ele>1338.652</ele>
        <time>2022-06-13T02:50:36Z</time>
      </trkpt>
      <trkpt lat="40.354194" lon="-5.328181">
        <ele>1335.517</ele>
        <time>2022-06-13T02:51:16Z</time>
      </trkpt>
      <trkpt lat="40.354088" lon="-5.327983">
        <ele>1333.209</ele>
        <time>2022-06-13T02:51:56Z</time>
      </trkpt>
      <trkpt lat="40.353977" lon="-5.327248">
        <ele>1328.066</ele>
        <time>2022-06-13T02:52:36Z</time>
      </trkpt>
      <trkpt lat="40.353891" lon="-5.326905">
        <ele>1322.925</ele>
        <time>2022-06-13T02:53:16Z</time>
      </trkpt>
      <trkpt lat="40.353781" lon="-5.326867">
        <ele>1321.949</ele>
        <time>2022-06-13T02:53:56Z</time>
      </trkpt>
      <trkpt lat="40.353499" lon="-5.327200">
        <ele>1319.928</ele>
        <time>2022-06-13T02:54:36Z</time>
      </trkpt>
      <trkpt lat="40.353210" lon="-5.327652">
        <ele>1317.836</ele>
        <time>2022-06-13T02:55:16Z</time>
      </trkpt>
      <trkpt lat="40.352990" lon="-5.327974">
        <ele>1314.950</ele>
        <time>2022-06-13T02:55:56Z</time>
      </trkpt>
      <trkpt lat="40.352933" lon="-5.328167">
        <ele>1314.016</ele>
        <time>2022-06-13T02:56:36Z</time>
      </trkpt>
      <trkpt lat="40.352892" lon="-5.328526">
        <ele>1312.786</ele>
        <time>2022-06-13T02:57:16Z</time>
      </trkpt>
      <trkpt lat="40.352900" lon="-5.329176">
        <ele>1309.584</ele>
        <time>2022-06-13T02:57:56Z</time>
      </trkpt>
      <trkpt lat="40.352949" lon="-5.329562">
        <ele>1308.223</ele>
        <time>2022-06-13T02:58:36Z</time>
      </trkpt>
      <trkpt lat="40.352920" lon="-5.329664">
        <ele>1306.583</ele>
        <time>2022-06-13T02:59:16Z</time>
      </trkpt>
      <trkpt lat="40.352798" lon="-5.329605">
        <ele>1302.911</ele>
        <time>2022-06-13T02:59:56Z</time>
      </trkpt>
      <trkpt lat="40.352671" lon="-5.329385">
        <ele>1301.409</ele>
        <time>2022-06-13T03:00:36Z</time>
      </trkpt>
      <trkpt lat="40.352384" lon="-5.328634">
        <ele>1298.453</ele>
        <time>2022-06-13T03:01:16Z</time>
      </trkpt>
      <trkpt lat="40.352265" lon="-5.328167">
        <ele>1297.352</ele>
        <time>2022-06-13T03:01:56Z</time>
      </trkpt>
      <trkpt lat="40.352184" lon="-5.327609">
        <ele>1292.126</ele>
        <time>2022-06-13T03:02:36Z</time>
      </trkpt>
      <trkpt lat="40.352225" lon="-5.327110">
        <ele>1289.775</ele>
        <time>2022-06-13T03:03:16Z</time>
      </trkpt>
      <trkpt lat="40.352225" lon="-5.326885">
        <ele>1288.763</ele>
        <time>2022-06-13T03:03:56Z</time>
      </trkpt>
      <trkpt lat="40.352102" lon="-5.326874">
        <ele>1285.147</ele>
        <time>2022-06-13T03:04:36Z</time>
      </trkpt>
      <trkpt lat="40.352037" lon="-5.326971">
        <ele>1283.853</ele>
        <time>2022-06-13T03:05:16Z</time>
      </trkpt>
      <trkpt lat="40.351984" lon="-5.327341">
        <ele>1284.083</ele>
        <time>2022-06-13T03:05:56Z</time>
      </trkpt>
      <trkpt lat="40.351800" lon="-5.327893">
        <ele>1283.381</ele>
        <time>2022-06-13T03:06:36Z</time>
      </trkpt>
      <trkpt lat="40.351726" lon="-5.328103">
        <ele>1282.131</ele>
        <time>2022-06-13T03:07:16Z</time>
      </trkpt>
      <trkpt lat="40.351636" lon="-5.328355">
        <ele>1278.061</ele>
        <time>2022-06-13T03:07:56Z</time>
      </trkpt>
      <trkpt lat="40.351657" lon="-5.328484">
        <ele>1278.707</ele>
        <time>2022-06-13T03:08:36Z</time>
      </trkpt>
      <trkpt lat="40.351579" lon="-5.328500">
        <ele>1276.309</ele>
        <time>2022-06-13T03:09:16Z</time>
      </trkpt>
      <trkpt lat="40.351506" lon="-5.328376">
        <ele>1273.994</ele>
        <time>2022-06-13T03:09:56Z</time>
      </trkpt>
      <trkpt lat="40.351445" lon="-5.328434">
        <ele>1272.133</ele>
        <time>2022-06-13T03:10:36Z</time>
      </trkpt>
      <trkpt lat="40.351383" lon="-5.328471">
        <ele>1270.527</ele>
        <time>2022-06-13T03:11:16Z</time>
      </trkpt>
      <trkpt lat="40.351330" lon="-5.328493">
        <ele>1270.496</ele>
        <time>2022-06-13T03:11:56Z</time>
      </trkpt>
      <trkpt lat="40.351281" lon="-5.328493">
        <ele>1270.264</ele>
        <time>2022-06-13T03:12:36Z</time>
      </trkpt>
      <trkpt lat="40.351216" lon="-5.328503">
        <ele>1270.058</ele>
        <time>2022-06-13T03:13:16Z</time>
      </trkpt>
      <trkpt lat="40.351036" lon="-5.328396">
        <ele>1269.984</ele>
        <time>2022-06-13T03:13:56Z</time>
      </trkpt>
      <trkpt lat="40.350762" lon="-5.328208">
        <ele>1271.634</ele>
        <time>2022-06-13T03:14:36Z</time>
      </trkpt>
      <trkpt lat="40.350433" lon="-5.327888">
        <ele>1273.822</ele>
        <time>2022-06-13T03:15:16Z</time>
      </trkpt>
      <trkpt lat="40.350349" lon="-5.327872">
        <ele>1274.048</ele>
        <time>2022-06-13T03:15:56Z</time>
      </trkpt>
      <trkpt lat="40.350242" lon="-5.327858">
        <ele>1273.961</ele>
        <time>2022-06-13T03:16:36Z</time>
      </trkpt>
      <trkpt lat="40.350132" lon="-5.327887">
        <ele>1273.717</ele>
        <time>2022-06-13T03:17:16Z</time>
      </trkpt>
      <trkpt lat="40.349885" lon="-5.327862">
        <ele>1271.909</ele>
        <time>2022-06-13T03:17:56Z</time>
      </trkpt>
      <trkpt lat="40.349514" lon="-5.327900">
        <ele>1271.395</ele>
        <time>2022-06-13T03:18:36Z</time>
      </trkpt>
      <trkpt lat="40.349207" lon="-5.327920">
        <ele>1271.614</ele>
        <time>2022-06-13T03:19:16Z</time>
      </trkpt>
      <trkpt lat="40.348868" lon="-5.327843">
        <ele>1271.178</ele>
        <time>2022-06-13T03:19:56Z</time>
      </trkpt>
      <trkpt lat="40.348519" lon="-5.327709">
        <ele>1271.397</ele>
        <time>2022-06-13T03:20:36Z</time>
      </trkpt>
      <trkpt lat="40.348154" lon="-5.327656">
        <ele>1272.275</ele>
        <time>2022-06-13T03:21:16Z</time>
      </trkpt>
      <trkpt lat="40.348052" lon="-5.327699">
        <ele>1273.419</ele>
        <time>2022-06-13T03:21:56Z</time>
      </trkpt>
      <trkpt lat="40.347936" lon="-5.327760">
        <ele>1273.655</ele>
        <time>2022-06-13T03:22:36Z</time>
      </trkpt>
      <trkpt lat="40.347691" lon="-5.327892">
        <ele>1272.435</ele>
        <time>2022-06-13T03:23:16Z</time>
      </trkpt>
      <trkpt lat="40.347477" lon="-5.327975">
        <ele>1270.333</ele>
        <time>2022-06-13T03:23:56Z</time>
      </trkpt>
      <trkpt lat="40.347368" lon="-5.327937">
        <ele>1271.015</ele>
        <time>2022-06-13T03:24:36Z</time>
      </trkpt>
      <trkpt lat="40.347105" lon="-5.327575">
        <ele>1270.565</ele>
        <time>2022-06-13T03:25:16Z</time>
      </trkpt>
      <trkpt lat="40.347023" lon="-5.327538">
        <ele>1270.711</ele>
        <time>2022-06-13T03:25:56Z</time>
      </trkpt>
      <trkpt lat="40.346708" lon="-5.327377">
        <ele>1270.609</ele>
        <time>2022-06-13T03:26:36Z</time>
      </trkpt>
      <trkpt lat="40.346562" lon="-5.327383">
        <ele>1268.592</ele>
        <time>2022-06-13T03:27:16Z</time>
      </trkpt>
      <trkpt lat="40.346394" lon="-5.327528">
        <ele>1266.391</ele>
        <time>2022-06-13T03:27:56Z</time>
      </trkpt>
      <trkpt lat="40.346310" lon="-5.327737">
        <ele>1266.635</ele>
        <time>2022-06-13T03:28:36Z</time>
      </trkpt>
      <trkpt lat="40.346151" lon="-5.328059">
        <ele>1266.624</ele>
        <time>2022-06-13T03:29:16Z</time>
      </trkpt>
      <trkpt lat="40.345902" lon="-5.328346">
        <ele>1262.122</ele>
        <time>2022-06-13T03:29:56Z</time>
      </trkpt>
      <trkpt lat="40.345565" lon="-5.328716">
        <ele>1258.516</ele>
        <time>2022-06-13T03:30:36Z</time>
      </trkpt>
      <trkpt lat="40.345388" lon="-5.328954">
        <ele>1255.912</ele>
        <time>2022-06-13T03:31:16Z</time>
      </trkpt>
      <trkpt lat="40.345288" lon="-5.328986">
        <ele>1253.982</ele>
        <time>2022-06-13T03:31:56Z</time>
      </trkpt>
      <trkpt lat="40.345159" lon="-5.329174">
        <ele>1253.340</ele>
        <time>2022-06-13T03:32:36Z</time>
      </trkpt>
      <trkpt lat="40.345155" lon="-5.329362">
        <ele>1254.349</ele>
        <time>2022-06-13T03:33:16Z</time>
      </trkpt>
      <trkpt lat="40.345094" lon="-5.329533">
        <ele>1253.202</ele>
        <time>2022-06-13T03:33:56Z</time>
      </trkpt>
      <trkpt lat="40.345058" lon="-5.329724">
        <ele>1251.222</ele>
        <time>2022-06-13T03:34:36Z</time>
      </trkpt>
      <trkpt lat="40.345075" lon="-5.330075">
        <ele>1250.109</ele>
        <time>2022-06-13T03:35:16Z</time>
      </trkpt>
      <trkpt lat="40.345099" lon="-5.330408">
        <ele>1249.015</ele>
        <time>2022-06-13T03:35:56Z</time>
      </trkpt>
    </trkseg>
  </trk>
</gpx>
